Flight Track Log - Related Links

Times and Time Zones

All times are in EDT time to prevent confusion due to time zone crossing. See the CPA879 flight status page for this flight to view local times or setup timezone preferences in your user account.

Time Position Orientation Groundspeed Altitude Reporting Facility
EDT Latitude Longitude Course Direction KTS MPH feet Rate Location/Type
Mon 05:22:49 PM 37.6331 -122.4142 309° West 89 102 1,200  Level Oakland Center
Mon 05:23:23 PM 37.6500 -122.4500 301° West 195 224 2,200 1,642 Climbing Northern Cal TRACON
Mon 05:28:00 PM 38.1171 -123.1727 309° West  Level Estimated
Mon 05:28:47 PM 37.6660 -122.9720 301° West 347 399 11,000  Level FlightAware ADS-B
Mon 05:29:27 PM 37.6710 -123.0520 275° West 375 432 11,700 720 Climbing FlightAware ADS-B
Mon 05:30:02 PM 37.6770 -123.1280 276° West 376 433 11,900 141 Climbing FlightAware ADS-B
Mon 05:30:52 PM 37.6830 -123.2210 275° West 376 433 11,900  Level FlightAware ADS-B
Mon 05:31:32 PM 37.6880 -123.2950 275° West 376 433 11,900 3,391 Level FlightAware ADS-B
Mon 05:32:01 PM 37.6964 -123.4136 275° West 412 474 15,800 3,667 Climbing Oakland Center
Mon 05:33:02 PM 37.7061 -123.5633 275° West 423 487 17,400 1,721 Climbing Oakland Center
Mon 05:34:03 PM 37.7169 -123.7169 275° West 434 499 19,300 1,610 Climbing Oakland Center
Mon 05:35:05 PM 37.7264 -123.8742 274° West 445 512 20,700 1,317 Climbing Oakland Center
Mon 05:36:06 PM 37.7369 -124.0336 275° West 457 526 22,000 1,220 Climbing Oakland Center
Mon 05:37:08 PM 37.7469 -124.1969 274° West 465 535 23,200 1,073 Climbing Oakland Center
Mon 05:38:09 PM 37.7569 -124.3631 274° West 473 544 24,200 1,082 Climbing Oakland Center
Mon 05:39:10 PM 37.7697 -124.5678 275° West 486 559 25,400 1,073 Climbing Oakland Center
Mon 05:40:12 PM 37.7781 -124.7408 274° West 494 568 26,400 1,073 Climbing Oakland Center
Mon 05:41:13 PM 37.7889 -124.9164 275° West 500 575 27,600 1,230 Climbing Oakland Center
Mon 05:42:14 PM 37.7983 -125.0903 274° West 497 572 28,900 1,024 Climbing Oakland Center
Mon 05:43:16 PM 37.8067 -125.2639 274° West 497 572 29,700 878 Climbing Oakland Center
Mon 05:44:17 PM 37.8169 -125.4381 274° West 497 572 30,700 634 Climbing Oakland Center
Mon 05:45:19 PM 37.8247 -125.6119 273° West 497 572 31,000 146 Climbing Oakland Center
Mon 05:46:20 PM 37.8333 -125.7844 274° West 495 570 31,000  Level Oakland Center
Mon 05:47:21 PM 37.8647 -125.9522 283° West 492 566 31,000  Level Oakland Center
Mon 05:48:23 PM 37.9172 -126.1492 289° West 492 566 31,000  Level Oakland Center
Mon 05:49:24 PM 37.9544 -126.2936 288° West 493 567 31,000  Level Oakland Center
Mon 05:50:26 PM 37.9981 -126.4592 289° West 495 570 31,000  Level Oakland Center
Mon 05:51:27 PM 38.0386 -126.6247 287° West 493 567 31,000  Level Oakland Center
Mon 05:52:28 PM 38.0892 -126.8244 288° West 495 570 31,000  Level Oakland Center
Mon 05:53:35 PM 38.1333 -127.0000 288° West 494 568 31,000  Level Oakland Oceanic (ODAPS)
Mon 06:00:00 PM 38.4146 -128.1597 287° West 494 568 31,000  Level FlightAware Transoceanic
Mon 06:01:00 PM 38.4539 -128.3261 287° West 494 568 31,000  Level FlightAware Transoceanic
Mon 06:02:00 PM 38.4929 -128.4927 287° West 494 568 31,000  Level FlightAware Transoceanic
Mon 06:03:00 PM 38.5317 -128.6595 286° West 494 568 31,000  Level FlightAware Transoceanic
Mon 06:04:00 PM 38.5702 -128.8264 286° West 494 568 31,000  Level FlightAware Transoceanic
Mon 06:05:00 PM 38.6085 -128.9935 286° West 494 568 31,000  Level FlightAware Transoceanic
Mon 06:05:02 PM 38.5667 -128.7500 286° West 496 571 31,000  Level Oakland Oceanic (ODAPS)
Mon 06:06:00 PM 38.6466 -129.1608 286° West 494 568 31,000  Level FlightAware Transoceanic
Mon 06:07:00 PM 38.6844 -129.3283 286° West 494 568 31,000  Level FlightAware Transoceanic
Mon 06:08:00 PM 38.7220 -129.4960 286° West 494 568 31,000  Level FlightAware Transoceanic
Mon 06:09:00 PM 38.7594 -129.6638 286° West 494 568 31,000  Level FlightAware Transoceanic
Mon 06:10:00 PM 38.7965 -129.8318 286° West 494 568 31,000  Level FlightAware Transoceanic
Mon 06:11:00 PM 38.8333 -130.0000 289° West 496 571 31,000  Level FlightAware Transoceanic
Mon 06:11:30 PM 38.8333 -130.0000 289° West 493 567 31,000  Level Oakland Oceanic (ODAPS)
Mon 06:12:00 PM 38.8763 -130.1613 289° West 496 571 31,000  Level FlightAware Transoceanic
Mon 06:13:00 PM 38.9191 -130.3227 289° West 496 571 31,000  Level FlightAware Transoceanic
Mon 06:14:00 PM 38.9617 -130.4844 289° West 496 571 31,000  Level FlightAware Transoceanic
Mon 06:15:00 PM 39.0040 -130.6463 289° West 496 571 31,000  Level FlightAware Transoceanic
Mon 06:16:00 PM 39.0461 -130.8083 288° West 496 571 31,000  Level FlightAware Transoceanic
Mon 06:17:00 PM 39.0922 -130.9871 288° West 493 567 31,000  Level FlightAware Transoceanic
Mon 06:18:00 PM 39.1345 -131.1523 288° West 493 567 31,000  Level FlightAware Transoceanic
Mon 06:18:06 PM 39.1167 -131.1000 288° West 494 568 31,000  Level Oakland Oceanic (ODAPS)
Mon 06:19:00 PM 39.1767 -131.3177 288° West 493 567 31,000  Level FlightAware Transoceanic
Mon 06:20:00 PM 39.2185 -131.4833 288° West 493 567 31,000  Level FlightAware Transoceanic
Mon 06:21:00 PM 39.2602 -131.6491 288° West 493 567 31,000  Level FlightAware Transoceanic
Mon 06:22:00 PM 39.3016 -131.8151 288° West 493 567 31,000  Level FlightAware Transoceanic
Mon 06:23:00 PM 39.3427 -131.9813 288° West 493 567 31,000  Level FlightAware Transoceanic
Mon 06:24:00 PM 39.3731 -132.1207 288° West 494 568 31,000  Level FlightAware Transoceanic
Mon 06:25:00 PM 39.4149 -132.2916 288° West 494 568 31,000  Level FlightAware Transoceanic
Mon 06:26:00 PM 39.4565 -132.4626 287° West 494 568 31,000  Level FlightAware Transoceanic
Mon 06:27:00 PM 39.4979 -132.6339 287° West 494 568 31,000  Level FlightAware Transoceanic
Mon 06:28:00 PM 39.5390 -132.8053 287° West 494 568 31,000  Level FlightAware Transoceanic
Mon 06:29:00 PM 39.5799 -132.9770 287° West 494 568 31,000  Level FlightAware Transoceanic
Mon 06:30:00 PM 39.6205 -133.1489 287° West 494 568 31,000  Level FlightAware Transoceanic
Mon 06:31:00 PM 39.6608 -133.3209 287° West 494 568 31,000  Level FlightAware Transoceanic
Mon 06:31:58 PM 39.7000 -133.4500 287° West 492 566 31,000  Level Oakland Oceanic (ODAPS)
Mon 06:32:00 PM 39.7009 -133.4932 287° West 494 568 31,000  Level FlightAware Transoceanic
Mon 06:33:00 PM 39.7407 -133.6657 287° West 494 568 31,000  Level FlightAware Transoceanic
Mon 06:34:00 PM 39.7803 -133.8383 287° West 494 568 31,000  Level FlightAware Transoceanic
Mon 06:35:00 PM 39.8197 -134.0112 286° West 494 568 31,000  Level FlightAware Transoceanic
Mon 06:36:00 PM 39.8587 -134.1842 286° West 494 568 31,000  Level FlightAware Transoceanic
Mon 06:37:00 PM 39.8976 -134.3575 286° West 494 568 31,000  Level FlightAware Transoceanic
Mon 06:38:00 PM 39.9357 -134.4946 286° West 492 566 31,000  Level FlightAware Transoceanic
Mon 06:39:00 PM 39.9740 -134.6694 286° West 492 566 31,000  Level FlightAware Transoceanic
Mon 06:40:00 PM 40.0121 -134.8444 286° West 492 566 31,000  Level FlightAware Transoceanic
Mon 06:41:00 PM 40.0500 -135.0196 286° West 492 566 31,000  Level FlightAware Transoceanic
Mon 06:42:00 PM 40.0876 -135.1950 286° West 492 566 31,000  Level FlightAware Transoceanic
Mon 06:43:00 PM 40.1249 -135.3705 285° West 492 566 31,000  Level FlightAware Transoceanic
Mon 06:44:00 PM 40.1619 -135.5463 285° West 492 566 31,000  Level FlightAware Transoceanic
Mon 06:45:00 PM 40.1987 -135.7223 285° West 492 566 31,000  Level FlightAware Transoceanic
Mon 06:45:50 PM 40.2167 -135.8167 285° West 488 562 31,000  Level Oakland Oceanic (ODAPS)
Mon 06:46:00 PM 40.2352 -135.8984 285° West 492 566 31,000  Level FlightAware Transoceanic
Mon 06:47:00 PM 40.2715 -136.0748 285° West 492 566 31,000  Level FlightAware Transoceanic
Mon 06:48:00 PM 40.3074 -136.2513 285° West 492 566 31,000  Level FlightAware Transoceanic
Mon 06:49:00 PM 40.3432 -136.4280 285° West 492 566 31,000  Level FlightAware Transoceanic
Mon 06:50:00 PM 40.3786 -136.6049 285° West 492 566 31,000  Level FlightAware Transoceanic
Mon 06:51:00 PM 40.4138 -136.7820 285° West 492 566 31,000  Level FlightAware Transoceanic
Mon 06:52:00 PM 40.4266 -136.8532 285° West 488 562 31,000  Level FlightAware Transoceanic
Mon 06:53:00 PM 40.4607 -137.0266 284° West 488 562 31,000  Level FlightAware Transoceanic
Mon 06:54:00 PM 40.4945 -137.2001 284° West 488 562 31,000  Level FlightAware Transoceanic
Mon 06:55:00 PM 40.5281 -137.3739 284° West 488 562 31,000  Level FlightAware Transoceanic
Mon 06:56:00 PM 40.5614 -137.5477 284° West 488 562 31,000  Level FlightAware Transoceanic
Mon 06:57:00 PM 40.5944 -137.7218 284° West 488 562 31,000  Level FlightAware Transoceanic
Mon 06:58:00 PM 40.6272 -137.8961 284° West 488 562 31,000  Level FlightAware Transoceanic
Mon 06:59:00 PM 40.6597 -138.0705 284° West 488 562 31,000  Level FlightAware Transoceanic
Mon 06:59:42 PM 40.6833 -138.2167 284° West 488 562 31,000  Level Oakland Oceanic (ODAPS)
Mon 07:00:00 PM 40.6920 -138.2451 284° West 488 562 31,000  Level FlightAware Transoceanic
Mon 07:01:00 PM 40.7240 -138.4198 284° West 488 562 31,000  Level FlightAware Transoceanic
Mon 07:02:00 PM 40.7557 -138.5947 283° West 488 562 31,000  Level FlightAware Transoceanic
Mon 07:03:00 PM 40.7872 -138.7698 283° West 488 562 31,000  Level FlightAware Transoceanic
Mon 07:04:00 PM 40.8184 -138.9451 283° West 488 562 31,000  Level FlightAware Transoceanic
Mon 07:05:00 PM 40.8493 -139.1205 283° West 488 562 31,000  Level FlightAware Transoceanic
Mon 07:06:00 PM 40.8880 -139.3495 283° West 488 562 31,000  Level FlightAware Transoceanic
Mon 07:07:00 PM 40.9164 -139.5119 283° West 488 562 31,000  Level FlightAware Transoceanic
Mon 07:08:00 PM 40.9445 -139.6745 283° West 488 562 31,000  Level FlightAware Transoceanic
Mon 07:09:00 PM 40.9724 -139.8372 283° West 488 562 31,000  Level FlightAware Transoceanic
Mon 07:09:59 PM 41.0000 -140.0000 295° West 485 558 31,000  Level Oakland Oceanic (ODAPS)
Mon 07:10:00 PM 41.0000 -140.0000 295° West 488 562 31,000  Level FlightAware Transoceanic
Mon 07:11:00 PM 41.0579 -140.1614 295° West 488 562 31,000  Level FlightAware Transoceanic
Mon 07:12:00 PM 41.1155 -140.3231 295° West 488 562 31,000  Level FlightAware Transoceanic
Mon 07:13:00 PM 41.1729 -140.4850 295° West 488 562 31,000  Level FlightAware Transoceanic
Mon 07:13:34 PM 41.2000 -140.5833 295° West 482 555 31,000  Level Oakland Oceanic (ODAPS)
Mon 07:14:00 PM 41.2301 -140.6473 295° West 488 562 31,000  Level FlightAware Transoceanic
Mon 07:15:00 PM 41.2870 -140.8098 295° West 488 562 31,000  Level FlightAware Transoceanic
Mon 07:16:00 PM 41.3438 -140.9726 295° West 485 558 31,000  Level FlightAware Transoceanic
Mon 07:17:00 PM 41.4003 -141.1357 295° West 485 558 31,000  Level FlightAware Transoceanic
Mon 07:18:00 PM 41.4565 -141.2991 295° West 485 558 31,000  Level FlightAware Transoceanic
Mon 07:19:00 PM 41.5126 -141.4627 295° West 485 558 31,000  Level FlightAware Transoceanic
Mon 07:20:00 PM 41.5912 -141.7136 294° West 482 555 31,000  Level FlightAware Transoceanic
Mon 07:21:00 PM 41.6462 -141.8762 294° West 482 555 31,000  Level FlightAware Transoceanic
Mon 07:22:00 PM 41.7009 -142.0390 294° West 482 555 31,000  Level FlightAware Transoceanic
Mon 07:23:00 PM 41.7555 -142.2022 294° West 482 555 31,000  Level FlightAware Transoceanic
Mon 07:24:00 PM 41.8097 -142.3656 294° West 482 555 31,000  Level FlightAware Transoceanic
Mon 07:25:00 PM 41.8638 -142.5293 294° West 482 555 31,000  Level FlightAware Transoceanic
Mon 07:26:00 PM 41.9176 -142.6932 294° West 482 555 31,000  Level FlightAware Transoceanic
Mon 07:27:00 PM 41.9712 -142.8575 294° West 482 555 31,000  Level FlightAware Transoceanic
Mon 07:27:26 PM 41.9667 -142.8500 294° West 481 554 31,000  Level Oakland Oceanic (ODAPS)
Mon 07:28:00 PM 42.0246 -143.0220 294° West 482 555 31,000  Level FlightAware Transoceanic
Mon 07:29:00 PM 42.0777 -143.1868 293° West 482 555 31,000  Level FlightAware Transoceanic
Mon 07:30:00 PM 42.1306 -143.3518 293° West 482 555 31,000  Level FlightAware Transoceanic
Mon 07:31:00 PM 42.1832 -143.5172 293° West 482 555 31,000  Level FlightAware Transoceanic
Mon 07:32:00 PM 42.2356 -143.6828 293° West 482 555 31,000  Level FlightAware Transoceanic
Mon 07:33:00 PM 42.2840 -143.8422 293° West 481 554 31,000  Level FlightAware Transoceanic
Mon 07:34:00 PM 42.3360 -144.0085 293° West 481 554 31,000  Level FlightAware Transoceanic
Mon 07:35:00 PM 42.3878 -144.1751 293° West 481 554 31,000  Level FlightAware Transoceanic
Mon 07:36:00 PM 42.4394 -144.3420 293° West 481 554 31,000  Level FlightAware Transoceanic
Mon 07:37:00 PM 42.4907 -144.5091 293° West 481 554 31,000  Level FlightAware Transoceanic
Mon 07:38:00 PM 42.5418 -144.6766 292° West 481 554 31,000  Level FlightAware Transoceanic
Mon 07:39:00 PM 42.5926 -144.8443 292° West 481 554 31,000  Level FlightAware Transoceanic
Mon 07:40:00 PM 42.6432 -145.0122 292° West 481 554 31,000  Level FlightAware Transoceanic
Mon 07:41:00 PM 42.6935 -145.1805 292° West 481 554 31,000  Level FlightAware Transoceanic
Mon 07:41:18 PM 42.6833 -145.1333 292° West 477 549 31,000  Level Oakland Oceanic (ODAPS)
Mon 07:42:00 PM 42.7436 -145.3490 292° West 481 554 31,000  Level FlightAware Transoceanic
Mon 07:43:00 PM 42.7935 -145.5178 292° West 481 554 31,000  Level FlightAware Transoceanic
Mon 07:44:00 PM 42.8431 -145.6868 292° West 481 554 31,000  Level FlightAware Transoceanic
Mon 07:45:00 PM 42.8924 -145.8562 292° West 481 554 31,000  Level FlightAware Transoceanic
Mon 07:46:00 PM 42.9415 -146.0258 292° West 481 554 31,000  Level FlightAware Transoceanic
Mon 07:47:00 PM 42.9725 -146.1228 291° West 477 549 31,000  Level FlightAware Transoceanic
Mon 07:48:00 PM 43.0199 -146.2886 291° West 477 549 31,000  Level FlightAware Transoceanic
Mon 07:49:00 PM 43.0670 -146.4547 291° West 477 549 31,000  Level FlightAware Transoceanic
Mon 07:50:00 PM 43.1139 -146.6210 291° West 477 549 31,000  Level FlightAware Transoceanic
Mon 07:51:00 PM 43.1606 -146.7876 291° West 477 549 31,000  Level FlightAware Transoceanic
Mon 07:52:00 PM 43.2070 -146.9544 291° West 477 549 31,000  Level FlightAware Transoceanic
Mon 07:53:00 PM 43.2531 -147.1215 291° West 477 549 31,000  Level FlightAware Transoceanic
Mon 07:54:00 PM 43.2990 -147.2888 291° West 477 549 31,000  Level FlightAware Transoceanic
Mon 07:55:00 PM 43.3447 -147.4564 290° West 477 549 31,000  Level FlightAware Transoceanic
Mon 07:55:10 PM 43.3500 -147.4667 290° West 480 552 31,000  Level Oakland Oceanic (ODAPS)
Mon 07:56:00 PM 43.3901 -147.6242 290° West 477 549 31,000  Level FlightAware Transoceanic
Mon 07:57:00 PM 43.4353 -147.7923 290° West 477 549 31,000  Level FlightAware Transoceanic
Mon 07:58:00 PM 43.4803 -147.9606 290° West 477 549 31,000  Level FlightAware Transoceanic
Mon 07:59:00 PM 43.5250 -148.1292 290° West 477 549 31,000  Level FlightAware Transoceanic
Mon 08:00:00 PM 43.5694 -148.2981 290° West 477 549 31,000  Level FlightAware Transoceanic
Mon 08:01:00 PM 43.6354 -148.5457 290° West 480 552 31,000  Level FlightAware Transoceanic
Mon 08:02:00 PM 43.6820 -148.7265 290° West 480 552 31,000  Level FlightAware Transoceanic
Mon 08:03:00 PM 43.7283 -148.9076 289° West 480 552 31,000  Level FlightAware Transoceanic
Mon 08:04:00 PM 43.7743 -149.0889 289° West 480 552 31,000  Level FlightAware Transoceanic
Mon 08:05:00 PM 43.8200 -149.2706 289° West 480 552 31,000  Level FlightAware Transoceanic
Mon 08:06:00 PM 43.8654 -149.4525 289° West 480 552 31,000  Level FlightAware Transoceanic
Mon 08:07:00 PM 43.9106 -149.6348 289° West 480 552 31,000  Level FlightAware Transoceanic
Mon 08:08:00 PM 43.9554 -149.8172 289° West 480 552 31,000  Level FlightAware Transoceanic
Mon 08:09:00 PM 44.0000 -150.0000 297° West 480 552 31,000  Level FlightAware Transoceanic
Mon 08:09:02 PM 43.9667 -149.8667 289° West 483 556 31,000  Level Oakland Oceanic (ODAPS)
Mon 08:09:47 PM 44.0000 -150.0000 297° West 502 578 31,000  Level Oakland Oceanic (ODAPS)
Mon 08:10:00 PM 44.0632 -150.1754 297° West 480 552 31,000  Level FlightAware Transoceanic
Mon 08:11:00 PM 44.1262 -150.3511 296° West 480 552 31,000  Level FlightAware Transoceanic
Mon 08:12:00 PM 44.1889 -150.5273 296° West 480 552 31,000  Level FlightAware Transoceanic
Mon 08:13:00 PM 44.2513 -150.7038 296° West 480 552 31,000  Level FlightAware Transoceanic
Mon 08:14:00 PM 44.3134 -150.8807 296° West 480 552 31,000  Level FlightAware Transoceanic
Mon 08:15:00 PM 44.3192 -150.8974 296° West 483 556 31,000  Level FlightAware Transoceanic
Mon 08:16:00 PM 44.3753 -151.0579 296° West 502 578 31,000  Level FlightAware Transoceanic
Mon 08:17:00 PM 44.4369 -151.2355 296° West 502 578 31,000  Level FlightAware Transoceanic
Mon 08:18:00 PM 44.4982 -151.4135 296° West 502 578 31,000  Level FlightAware Transoceanic
Mon 08:19:00 PM 44.5592 -151.5919 296° West 502 578 31,000  Level FlightAware Transoceanic
Mon 08:20:00 PM 44.6199 -151.7707 295° West 502 578 31,000  Level FlightAware Transoceanic
Mon 08:21:00 PM 44.6804 -151.9498 295° West 502 578 31,000  Level FlightAware Transoceanic
Mon 08:22:00 PM 44.7406 -152.1293 295° West 502 578 31,000  Level FlightAware Transoceanic
Mon 08:22:54 PM 44.7833 -152.2500 295° West 509 586 31,000  Level Oakland Oceanic (ODAPS)
Mon 08:23:00 PM 44.8005 -152.3092 295° West 502 578 31,000  Level FlightAware Transoceanic
Mon 08:24:00 PM 44.8602 -152.4894 295° West 502 578 31,000  Level FlightAware Transoceanic
Mon 08:25:00 PM 44.9195 -152.6700 295° West 502 578 31,000  Level FlightAware Transoceanic
Mon 08:26:00 PM 44.9786 -152.8510 295° West 502 578 31,000  Level FlightAware Transoceanic
Mon 08:27:00 PM 45.0374 -153.0324 295° West 502 578 31,000  Level FlightAware Transoceanic
Mon 08:28:00 PM 45.0959 -153.2141 294° West 502 578 31,000  Level FlightAware Transoceanic
Mon 08:29:00 PM 45.1399 -153.3451 294° West 509 586 31,000  Level FlightAware Transoceanic
Mon 08:30:00 PM 45.1982 -153.5290 294° West 509 586 31,000  Level FlightAware Transoceanic
Mon 08:31:00 PM 45.2564 -153.7132 294° West 509 586 31,000  Level FlightAware Transoceanic
Mon 08:32:00 PM 45.3142 -153.8978 294° West 509 586 31,000  Level FlightAware Transoceanic
Mon 08:33:00 PM 45.3717 -154.0828 294° West 509 586 31,000  Level FlightAware Transoceanic
Mon 08:34:00 PM 45.4289 -154.2681 294° West 509 586 31,000  Level FlightAware Transoceanic
Mon 08:35:00 PM 45.4858 -154.4538 294° West 509 586 31,000  Level FlightAware Transoceanic
Mon 08:36:00 PM 45.5424 -154.6399 293° West 509 586 31,000  Level FlightAware Transoceanic
Mon 08:36:46 PM 45.5667 -154.7000 293° West 510 587 31,000  Level Oakland Oceanic (ODAPS)
Mon 08:37:00 PM 45.5987 -154.8264 293° West 509 586 31,000  Level FlightAware Transoceanic
Mon 08:38:00 PM 45.6547 -155.0132 293° West 509 586 31,000  Level FlightAware Transoceanic
Mon 08:39:00 PM 45.7104 -155.2005 293° West 509 586 31,000  Level FlightAware Transoceanic
Mon 08:40:00 PM 45.7658 -155.3880 293° West 509 586 31,000  Level FlightAware Transoceanic
Mon 08:41:00 PM 45.8208 -155.5760 293° West 509 586 31,000  Level FlightAware Transoceanic
Mon 08:42:00 PM 45.8756 -155.7643 293° West 509 586 31,000  Level FlightAware Transoceanic
Mon 08:43:00 PM 45.9478 -155.9988 292° West 510 587 31,000  Level FlightAware Transoceanic
Mon 08:44:00 PM 46.0010 -156.1858 292° West 510 587 31,000  Level FlightAware Transoceanic
Mon 08:45:00 PM 46.0539 -156.3732 292° West 510 587 31,000  Level FlightAware Transoceanic
Mon 08:46:00 PM 46.1065 -156.5609 292° West 510 587 31,000  Level FlightAware Transoceanic
Mon 08:47:00 PM 46.1589 -156.7490 292° West 510 587 31,000  Level FlightAware Transoceanic
Mon 08:48:00 PM 46.2109 -156.9374 292° West 510 587 31,000  Level FlightAware Transoceanic
Mon 08:49:00 PM 46.2626 -157.1262 292° West 510 587 31,000  Level FlightAware Transoceanic
Mon 08:50:00 PM 46.3139 -157.3153 291° West 510 587 31,000  Level FlightAware Transoceanic
Mon 08:50:38 PM 46.3167 -157.3167 291° West 518 596 31,000  Level Oakland Oceanic (ODAPS)
Mon 08:51:00 PM 46.3650 -157.5048 291° West 510 587 31,000  Level FlightAware Transoceanic
Mon 08:52:00 PM 46.4158 -157.6946 291° West 510 587 31,000  Level FlightAware Transoceanic
Mon 08:53:00 PM 46.4662 -157.8848 291° West 510 587 31,000  Level FlightAware Transoceanic
Mon 08:54:00 PM 46.5163 -158.0754 291° West 510 587 31,000  Level FlightAware Transoceanic
Mon 08:55:00 PM 46.5662 -158.2663 291° West 510 587 31,000  Level FlightAware Transoceanic
Mon 08:56:00 PM 46.6172 -158.4583 291° West 518 596 31,000  Level FlightAware Transoceanic
Mon 08:57:00 PM 46.6662 -158.6499 290° West 518 596 31,000  Level FlightAware Transoceanic
Mon 08:58:00 PM 46.7148 -158.8417 290° West 518 596 31,000  Level FlightAware Transoceanic
Mon 08:59:00 PM 46.7632 -159.0339 290° West 518 596 31,000  Level FlightAware Transoceanic
Mon 09:00:00 PM 46.8112 -159.2264 290° West 518 596 31,000  Level FlightAware Transoceanic
Mon 09:01:00 PM 46.8589 -159.4193 290° West 518 596 31,000  Level FlightAware Transoceanic
Mon 09:02:00 PM 46.9062 -159.6125 290° West 518 596 31,000  Level FlightAware Transoceanic
Mon 09:03:00 PM 46.9533 -159.8061 290° West 518 596 31,000  Level FlightAware Transoceanic
Mon 09:04:00 PM 47.0000 -160.0000 298° West 518 596 31,000  Level FlightAware Transoceanic
Mon 09:04:18 PM 47.0000 -160.0000 298° West 534 615 31,000  Level Oakland Oceanic (ODAPS)
Mon 09:04:34 PM 47.0167 -160.0333 298° West 534 615 31,000  Level Oakland Oceanic (ODAPS)
Mon 09:05:00 PM 47.0710 -160.1962 298° West 518 596 31,000  Level FlightAware Transoceanic
Mon 09:06:00 PM 47.1417 -160.3928 298° West 518 596 31,000  Level FlightAware Transoceanic
Mon 09:07:00 PM 47.2121 -160.5900 298° West 518 596 31,000  Level FlightAware Transoceanic
Mon 09:08:00 PM 47.2821 -160.7877 297° West 518 596 31,000  Level FlightAware Transoceanic
Mon 09:09:00 PM 47.3517 -160.9859 297° West 518 596 31,000  Level FlightAware Transoceanic
Mon 09:10:00 PM 47.4269 -161.1901 297° West 534 615 31,000  Level FlightAware Transoceanic
Mon 09:11:00 PM 47.4941 -161.3847 297° West 534 615 31,000  Level FlightAware Transoceanic
Mon 09:12:00 PM 47.5611 -161.5797 297° West 534 615 31,000  Level FlightAware Transoceanic
Mon 09:13:00 PM 47.6276 -161.7753 297° West 534 615 31,000  Level FlightAware Transoceanic
Mon 09:14:00 PM 47.6939 -161.9713 297° West 534 615 31,000  Level FlightAware Transoceanic
Mon 09:15:00 PM 47.7598 -162.1678 296° West 534 615 31,000  Level FlightAware Transoceanic
Mon 09:16:00 PM 47.8253 -162.3649 296° West 534 615 31,000  Level FlightAware Transoceanic
Mon 09:17:00 PM 47.8906 -162.5624 296° West 534 615 31,000  Level FlightAware Transoceanic
Mon 09:18:00 PM 47.9554 -162.7604 296° West 534 615 31,000  Level FlightAware Transoceanic
Mon 09:18:22 PM 47.9333 -162.7000 296° West 523 602 31,000  Level Oakland Oceanic (ODAPS)
Mon 09:19:00 PM 48.0200 -162.9589 296° West 534 615 31,000  Level FlightAware Transoceanic
Mon 09:20:00 PM 48.0842 -163.1579 296° West 534 615 31,000  Level FlightAware Transoceanic
Mon 09:21:00 PM 48.1481 -163.3575 296° West 534 615 31,000  Level FlightAware Transoceanic
Mon 09:22:00 PM 48.2116 -163.5575 295° West 534 615 31,000  Level FlightAware Transoceanic
Mon 09:23:00 PM 48.2748 -163.7580 295° West 534 615 31,000  Level FlightAware Transoceanic
Mon 09:24:00 PM 48.3092 -163.8743 295° West 523 602 31,000  Level FlightAware Transoceanic
Mon 09:25:00 PM 48.3707 -164.0717 295° West 523 602 31,000  Level FlightAware Transoceanic
Mon 09:26:00 PM 48.4318 -164.2696 295° West 523 602 31,000  Level FlightAware Transoceanic
Mon 09:27:00 PM 48.4926 -164.4679 295° West 523 602 31,000  Level FlightAware Transoceanic
Mon 09:28:00 PM 48.5531 -164.6667 295° West 523 602 31,000  Level FlightAware Transoceanic
Mon 09:29:00 PM 48.6132 -164.8660 294° West 523 602 31,000  Level FlightAware Transoceanic
Mon 09:30:00 PM 48.6730 -165.0658 294° West 523 602 31,000  Level FlightAware Transoceanic
Mon 09:31:00 PM 48.7324 -165.2660 294° West 523 602 31,000  Level FlightAware Transoceanic
Mon 09:32:00 PM 48.7915 -165.4667 294° West 523 602 31,000 811 Level FlightAware Transoceanic
Mon 09:32:14 PM 48.8000 -165.5000 294° West 544 626 32,000  Climbing Oakland Oceanic (ODAPS)
Mon 09:33:00 PM 48.8502 -165.6679 294° West 523 602 31,000 -566 Descending FlightAware Transoceanic
Mon 09:34:00 PM 48.9086 -165.8695 294° West 523 602 31,000  Level FlightAware Transoceanic
Mon 09:35:00 PM 48.9666 -166.0717 294° West 523 602 31,000  Level FlightAware Transoceanic
Mon 09:36:00 PM 49.0243 -166.2742 293° West 523 602 31,000  Level FlightAware Transoceanic
Mon 09:37:00 PM 49.0816 -166.4773 293° West 523 602 31,000 500 Level FlightAware Transoceanic
Mon 09:38:00 PM 49.1606 -166.7632 293° West 544 626 32,000 500 Climbing FlightAware Transoceanic
Mon 09:39:00 PM 49.2193 -166.9755 293° West 544 626 32,000  Level FlightAware Transoceanic
Mon 09:40:00 PM 49.2777 -167.1883 293° West 544 626 32,000  Level FlightAware Transoceanic
Mon 09:41:00 PM 49.3356 -167.4016 293° West 544 626 32,000  Level FlightAware Transoceanic
Mon 09:42:00 PM 49.3932 -167.6154 292° West 544 626 32,000  Level FlightAware Transoceanic
Mon 09:43:00 PM 49.4504 -167.8297 292° West 544 626 32,000  Level FlightAware Transoceanic
Mon 09:44:00 PM 49.5071 -168.0445 292° West 544 626 32,000  Level FlightAware Transoceanic
Mon 09:45:00 PM 49.5635 -168.2598 292° West 544 626 32,000  Level FlightAware Transoceanic
Mon 09:46:00 PM 49.6195 -168.4756 292° West 544 626 32,000  Level FlightAware Transoceanic
Mon 09:46:06 PM 49.6000 -168.4167 292° West 529 609 32,000  Level Oakland Oceanic (ODAPS)
Mon 09:47:00 PM 49.6751 -168.6919 292° West 544 626 32,000  Level FlightAware Transoceanic
Mon 09:48:00 PM 49.7303 -168.9087 291° West 544 626 32,000  Level FlightAware Transoceanic
Mon 09:49:00 PM 49.7850 -169.1260 291° West 544 626 32,000  Level FlightAware Transoceanic
Mon 09:50:00 PM 49.8394 -169.3438 291° West 544 626 32,000  Level FlightAware Transoceanic
Mon 09:51:00 PM 49.8933 -169.5620 291° West 544 626 32,000  Level FlightAware Transoceanic
Mon 09:52:00 PM 49.9442 -169.7722 291° West 529 609 32,000  Level FlightAware Transoceanic
Mon 09:53:00 PM 50.0000 -170.0000 274° West 529 609 32,000  Level FlightAware Transoceanic
Mon 09:53:31 PM 50.0000 -170.0000 274° West 534 615 32,000  Level Oakland Oceanic (ODAPS)
Mon 09:54:00 PM 50.0095 -170.2266 274° West 529 609 32,000  Level FlightAware Transoceanic
Mon 09:55:00 PM 50.0186 -170.4534 273° West 529 609 32,000  Level FlightAware Transoceanic
Mon 09:56:00 PM 50.0273 -170.6802 273° West 529 609 32,000  Level FlightAware Transoceanic
Mon 09:57:00 PM 50.0355 -170.9071 273° West 529 609 32,000  Level FlightAware Transoceanic
Mon 09:58:00 PM 50.0433 -171.1340 273° West 529 609 32,000  Level FlightAware Transoceanic
Mon 09:59:00 PM 50.0506 -171.3611 273° West 534 615 32,000  Level FlightAware Transoceanic
Mon 09:59:58 PM 50.0500 -171.4667 273° West 536 617 32,000  Level Oakland Oceanic (ODAPS)
Mon 10:00:00 PM 50.0575 -171.5882 273° West 534 615 32,000  Level FlightAware Transoceanic
Mon 10:01:00 PM 50.0639 -171.8154 272° West 534 615 32,000  Level FlightAware Transoceanic
Mon 10:02:00 PM 50.0700 -172.0426 272° West 534 615 32,000  Level FlightAware Transoceanic
Mon 10:03:00 PM 50.0755 -172.2699 272° West 534 615 32,000  Level FlightAware Transoceanic
Mon 10:04:00 PM 50.0806 -172.4972 272° West 534 615 32,000  Level FlightAware Transoceanic
Mon 10:05:00 PM 50.0853 -172.7246 272° West 534 615 32,000  Level FlightAware Transoceanic
Mon 10:06:00 PM 50.0844 -172.8499 272° West 536 617 32,000  Level FlightAware Transoceanic
Mon 10:07:00 PM 50.0886 -173.0807 272° West 536 617 32,000  Level FlightAware Transoceanic
Mon 10:08:00 PM 50.0923 -173.3114 271° West 536 617 32,000  Level FlightAware Transoceanic
Mon 10:09:00 PM 50.0955 -173.5422 271° West 536 617 32,000  Level FlightAware Transoceanic
Mon 10:10:00 PM 50.0982 -173.7730 271° West 536 617 32,000  Level FlightAware Transoceanic
Mon 10:11:00 PM 50.1005 -174.0039 271° West 536 617 32,000  Level FlightAware Transoceanic
Mon 10:12:00 PM 50.1024 -174.2348 271° West 536 617 32,000  Level FlightAware Transoceanic
Mon 10:13:00 PM 50.1038 -174.4656 270° West 536 617 32,000  Level FlightAware Transoceanic
Mon 10:13:54 PM 50.1000 -174.6833 270° West 540 621 32,000  Level Oakland Oceanic (ODAPS)
Mon 10:14:00 PM 50.1047 -174.6965 270° West 536 617 32,000  Level FlightAware Transoceanic
Mon 10:15:00 PM 50.1052 -174.9274 270° West 536 617 32,000  Level FlightAware Transoceanic
Mon 10:16:00 PM 50.1052 -175.1583 270° West 536 617 32,000  Level FlightAware Transoceanic
Mon 10:17:00 PM 50.1048 -175.3892 270° West 536 617 32,000  Level FlightAware Transoceanic
Mon 10:18:00 PM 50.1039 -175.6201 270° West 536 617 32,000  Level FlightAware Transoceanic
Mon 10:19:00 PM 50.1025 -175.8510 269° West 536 617 32,000  Level FlightAware Transoceanic
Mon 10:20:00 PM 50.0968 -176.1351 269° West 540 621 32,000  Level FlightAware Transoceanic
Mon 10:21:00 PM 50.0945 -176.3770 269° West 540 621 32,000  Level FlightAware Transoceanic
Mon 10:22:00 PM 50.0918 -176.6190 269° West 540 621 32,000  Level FlightAware Transoceanic
Mon 10:23:00 PM 50.0885 -176.8608 269° West 540 621 32,000  Level FlightAware Transoceanic
Mon 10:24:00 PM 50.0847 -177.1026 269° West 540 621 32,000  Level FlightAware Transoceanic
Mon 10:25:00 PM 50.0804 -177.3444 268° West 540 621 32,000  Level FlightAware Transoceanic
Mon 10:26:00 PM 50.0756 -177.5862 268° West 540 621 32,000  Level FlightAware Transoceanic
Mon 10:27:00 PM 50.0703 -177.8279 268° West 540 621 32,000  Level FlightAware Transoceanic
Mon 10:27:58 PM 50.0667 -177.9000 268° West 524 603 32,000  Level Anchorage Center
Mon 10:28:00 PM 50.0645 -178.0695 268° West 540 621 32,000  Level FlightAware Transoceanic
Mon 10:29:00 PM 50.0582 -178.3111 268° West 540 621 32,000  Level FlightAware Transoceanic
Mon 10:30:00 PM 50.0513 -178.5526 267° West 540 621 32,000  Level FlightAware Transoceanic
Mon 10:31:00 PM 50.0440 -178.7940 267° West 540 621 32,000  Level FlightAware Transoceanic
Mon 10:32:00 PM 50.0362 -179.0354 267° West 540 621 32,000  Level FlightAware Transoceanic
Mon 10:33:00 PM 50.0279 -179.2767 267° West 540 621 32,000  Level FlightAware Transoceanic
Mon 10:34:00 PM 50.0264 -179.3007 267° West 524 603 32,000  Level FlightAware Transoceanic
Mon 10:35:00 PM 50.0181 -179.5339 267° West 524 603 32,000  Level FlightAware Transoceanic
Mon 10:36:00 PM 50.0093 -179.7670 267° West 524 603 32,000  Level FlightAware Transoceanic
Mon 10:37:00 PM 50.0000 -180.0000 264° West 524 603 32,000  Level FlightAware Transoceanic
Mon 10:37:19 PM 50.0000 180.0000 264° West 525 604 32,000  Level Anchorage Center
Mon 10:37:34 PM 50.0000 179.9167 264° West 523 602 32,000  Level Anchorage Center
Mon 10:38:00 PM 49.9845 179.7705 264° West 524 603 32,000  Level FlightAware Transoceanic
Mon 10:39:00 PM 49.9685 179.5411 264° West 524 603 32,000  Level FlightAware Transoceanic
Mon 10:40:00 PM 49.9520 179.3119 264° West 524 603 32,000  Level FlightAware Transoceanic
Mon 10:41:00 PM 49.9352 179.0829 263° West 524 603 32,000  Level FlightAware Transoceanic
Mon 10:42:00 PM 49.9178 178.8540 263° West 524 603 32,000  Level FlightAware Transoceanic
Mon 10:43:00 PM 49.9013 178.5788 263° West 523 602 32,000  Level FlightAware Transoceanic
Mon 10:44:00 PM 49.8834 178.3563 263° West 523 602 32,000  Level FlightAware Transoceanic
Mon 10:45:00 PM 49.8650 178.1341 263° West 523 602 32,000  Level FlightAware Transoceanic
Mon 10:45:57 PM 49.8333 177.9667 262° West 550 633 32,000  Level Anchorage Center
Mon 10:46:00 PM 49.8462 177.9120 262° West 523 602 32,000  Level FlightAware Transoceanic
Mon 10:46:57 PM 49.8167 177.7833 262° West 530 610 32,000  Level Anchorage Center
Mon 10:47:00 PM 49.8270 177.6901 262° West 523 602 32,000  Level FlightAware Transoceanic
Mon 10:47:57 PM 49.8000 177.5333 264° West 530 610 32,000  Level Anchorage Center
Mon 10:48:00 PM 49.8074 177.4683 262° West 523 602 32,000  Level FlightAware Transoceanic
Mon 10:48:57 PM 49.7833 177.3333 263° West 540 621 32,000  Level Anchorage Center
Mon 10:49:00 PM 49.7873 177.2468 262° West 523 602 32,000  Level FlightAware Transoceanic
Mon 10:49:57 PM 49.7667 177.0833 264° West 540 621 32,000  Level Anchorage Center
Mon 10:50:00 PM 49.7668 177.0254 262° West 523 602 32,000  Level FlightAware Transoceanic
Mon 10:50:57 PM 49.7333 176.8333 258° West 530 610 32,000  Level Anchorage Center
Mon 10:51:00 PM 49.7459 176.8042 262° West 523 602 32,000  Level FlightAware Transoceanic
Mon 10:52:57 PM 49.7000 176.3833 264° West 530 610 32,000  Level Anchorage Center
Mon 10:53:57 PM 49.6667 176.1833 256° West 540 621 32,000  Level Anchorage Center
Mon 10:54:57 PM 49.6500 175.9333 264° West 540 621 32,000  Level Anchorage Center
Mon 10:55:58 PM 49.6333 175.7333 263° West 540 621 32,000  Level Anchorage Center
Mon 10:56:58 PM 49.6000 175.4833 258° West 540 621 32,000  Level Anchorage Center
Mon 10:57:57 PM 49.5833 175.2833 263° West 530 610 32,000  Level Anchorage Center
Mon 10:58:58 PM 49.5500 175.0833 256° West 550 633 32,000  Level Anchorage Center
Mon 10:59:58 PM 49.5333 174.8333 264° West 540 621 32,000  Level Anchorage Center
Mon 11:00:58 PM 49.5000 174.5833 258° West 540 621 32,000  Level Anchorage Center
Mon 11:01:58 PM 49.4833 174.3833 263° West 550 633 32,000  Level Anchorage Center
Mon 11:02:58 PM 49.4500 174.1333 259° West 530 610 32,000  Level Anchorage Center
Mon 11:03:58 PM 49.4167 173.9000 258° West 530 610 32,000  Level Anchorage Center
Mon 11:04:58 PM 49.3833 173.7000 256° West 540 621 32,000  Level Anchorage Center
Mon 11:05:58 PM 49.3667 173.4500 264° West 550 633 32,000  Level Anchorage Center
Mon 11:06:58 PM 49.3333 173.2500 256° West 550 633 32,000  Level Anchorage Center
Mon 11:07:59 PM 49.3000 173.0167 258° West 530 610 32,000  Level Anchorage Center
Mon 11:08:58 PM 49.2833 172.8167 263° West 540 621 32,000  Level Anchorage Center
Mon 11:09:58 PM 49.2500 172.5833 258° West 530 610 32,000  Level Anchorage Center
Mon 11:10:59 PM 49.2167 172.3333 259° West 540 621 32,000  Level Anchorage Center
Mon 11:11:59 PM 49.1833 172.1333 256° West 540 621 32,000  Level Anchorage Center
Mon 11:12:59 PM 49.1500 171.9000 258° West 530 610 32,000  Level Anchorage Center
Mon 11:15:00 PM 49.1222 171.7021 258° West  Level FlightAware Approximate
Mon 11:15:54 PM 49.0667 171.2833 258° West 533 613 32,000  Level Anchorage Center
Mon 11:22:00 PM 48.8643 169.9149 257° West 533 613 32,000  Level FlightAware Transoceanic
Mon 11:23:00 PM 48.8290 169.6880 257° West 533 613 32,000  Level FlightAware Transoceanic
Mon 11:24:00 PM 48.7932 169.4613 256° West 533 613 32,000  Level FlightAware Transoceanic
Mon 11:25:00 PM 48.7570 169.2350 256° West 533 613 32,000  Level FlightAware Transoceanic
Mon 11:25:31 PM 48.7500 169.1833 256° West 547 629 32,000  Level Anchorage Center
Mon 11:26:00 PM 48.7204 169.0090 256° West 533 613 32,000  Level FlightAware Transoceanic
Mon 11:27:00 PM 48.6833 168.7833 260° West 533 613 32,000  Level FlightAware Transoceanic
Mon 11:27:31 PM 48.6833 168.7833 260° West 526 605 32,000  Level Anchorage Center
Mon 11:28:00 PM 48.6577 168.5662 260° West 533 613 32,000  Level FlightAware Transoceanic
Mon 11:29:00 PM 48.6317 168.3492 260° West 533 613 32,000  Level FlightAware Transoceanic
Mon 11:30:00 PM 48.6053 168.1325 259° West 533 613 32,000  Level FlightAware Transoceanic
Mon 11:31:00 PM 48.5784 167.9160 259° West 547 629 32,000  Level FlightAware Transoceanic
Mon 11:32:00 PM 48.5512 167.6997 259° West 547 629 32,000  Level FlightAware Transoceanic
Mon 11:33:00 PM 48.5236 167.4837 259° West 526 605 32,000  Level FlightAware Transoceanic
Mon 11:34:00 PM 48.4955 167.2679 259° West 526 605 32,000  Level FlightAware Transoceanic
Mon 11:35:00 PM 48.4671 167.0524 259° West 526 605 32,000  Level FlightAware Transoceanic
Mon 11:35:06 PM 48.4667 167.1167 259° West 522 601 32,000  Level Anchorage Center
Mon 11:36:00 PM 48.4382 166.8371 258° West 526 605 32,000  Level FlightAware Transoceanic
Mon 11:37:00 PM 48.4090 166.6220 258° West 526 605 32,000  Level FlightAware Transoceanic
Mon 11:38:00 PM 48.3793 166.4072 258° West 526 605 32,000  Level FlightAware Transoceanic
Mon 11:39:00 PM 48.3493 166.1926 258° West 526 605 32,000  Level FlightAware Transoceanic
Mon 11:40:00 PM 48.3188 165.9783 258° West 526 605 32,000  Level FlightAware Transoceanic
Mon 11:41:00 PM 48.2882 165.8141 258° West 522 601 32,000  Level FlightAware Transoceanic
Mon 11:42:00 PM 48.2570 165.5979 258° West 522 601 32,000  Level FlightAware Transoceanic
Mon 11:43:00 PM 48.2255 165.3820 258° West 522 601 32,000  Level FlightAware Transoceanic
Mon 11:44:00 PM 48.1935 165.1664 257° West 522 601 32,000  Level FlightAware Transoceanic
Mon 11:44:42 PM 48.1833 165.0833 257° West 519 597 32,000  Level Anchorage Center
Mon 11:45:00 PM 48.1611 164.9510 257° West 522 601 32,000  Level FlightAware Transoceanic
Mon 11:46:00 PM 48.1283 164.7359 257° West 522 601 32,000  Level FlightAware Transoceanic
Mon 11:47:00 PM 48.0951 164.5210 257° West 522 601 32,000  Level FlightAware Transoceanic
Mon 11:48:00 PM 48.0616 164.3065 257° West 522 601 32,000  Level FlightAware Transoceanic
Mon 11:49:00 PM 48.0276 164.0922 257° West 522 601 32,000  Level FlightAware Transoceanic
Mon 11:50:00 PM 47.9858 163.8232 256° West 519 597 32,000  Level FlightAware Transoceanic
Mon 11:51:00 PM 47.9516 163.6142 256° West 519 597 32,000  Level FlightAware Transoceanic
Mon 11:52:00 PM 47.9169 163.4054 256° West 519 597 32,000  Level FlightAware Transoceanic
Mon 11:53:00 PM 47.8819 163.1969 256° West 519 597 32,000  Level FlightAware Transoceanic
Mon 11:54:00 PM 47.8465 162.9886 256° West 519 597 32,000  Level FlightAware Transoceanic
Mon 11:54:18 PM 47.8667 163.0833 256° West 520 598 32,000  Level Anchorage Center
Mon 11:55:00 PM 47.8108 162.7807 256° West 519 597 32,000  Level FlightAware Transoceanic
Mon 11:56:00 PM 47.7746 162.5731 255° West 519 597 32,000  Level FlightAware Transoceanic
Mon 11:57:00 PM 47.7381 162.3657 255° West 519 597 32,000  Level FlightAware Transoceanic
Mon 11:58:00 PM 47.7012 162.1586 255° West 519 597 32,000  Level FlightAware Transoceanic
Mon 11:59:00 PM 47.6640 161.9519 255° West 519 597 32,000  Level FlightAware Transoceanic
Tue 12:00:00 AM 47.6317 161.7688 255° West 520 598 32,000  Level FlightAware Transoceanic
Tue 12:01:00 AM 47.5910 161.5509 254° West 520 598 32,000  Level FlightAware Transoceanic
Tue 12:02:00 AM 47.5500 161.3333 234° Southwest 520 598 32,000  Level FlightAware Transoceanic
Tue 12:03:00 AM 47.4717 161.1721 234° Southwest 520 598 32,000  Level FlightAware Transoceanic
Tue 12:04:00 AM 47.3931 161.0113 234° Southwest 520 598 32,000  Level FlightAware Transoceanic
Tue 12:05:00 AM 47.3143 160.8510 234° Southwest 520 598 32,000  Level FlightAware Transoceanic
Tue 12:06:00 AM 47.2353 160.6911 234° Southwest 520 598 32,000  Level FlightAware Transoceanic
Tue 12:07:00 AM 47.1561 160.5318 234° Southwest 520 598 32,000  Level FlightAware Transoceanic
Tue 12:08:00 AM 47.0766 160.3729 234° Southwest 520 598 32,000  Level FlightAware Transoceanic
Tue 12:09:00 AM 46.9970 160.2145 234° Southwest 520 598 32,000  Level FlightAware Transoceanic
Tue 12:10:00 AM 46.9171 160.0566 233° Southwest 520 598 32,000  Level FlightAware Transoceanic
Tue 12:11:00 AM 46.8370 159.8991 233° Southwest 520 598 32,000  Level FlightAware Transoceanic
Tue 12:12:00 AM 46.7567 159.7422 233° Southwest 520 598 32,000  Level FlightAware Transoceanic
Tue 12:13:00 AM 46.6762 159.5856 233° Southwest 520 598 32,000  Level FlightAware Transoceanic
Tue 12:14:00 AM 46.5954 159.4296 233° Southwest 520 598 32,000  Level FlightAware Transoceanic
Tue 12:15:00 AM 46.5145 159.2740 233° Southwest 520 598 32,000  Level FlightAware Transoceanic
Tue 12:16:00 AM 46.4333 159.1189 233° Southwest 520 598 32,000  Level FlightAware Transoceanic
Tue 12:17:00 AM 46.3519 158.9642 233° Southwest 520 598 32,000  Level FlightAware Transoceanic
Tue 12:18:00 AM 46.2703 158.8100 232° Southwest 520 598 32,000  Level FlightAware Transoceanic
Tue 12:19:00 AM 46.1885 158.6562 232° Southwest 520 598 32,000  Level FlightAware Transoceanic
Tue 12:20:00 AM 46.1065 158.5029 232° Southwest 520 598 32,000  Level FlightAware Transoceanic
Tue 12:21:00 AM 46.0244 158.3501 232° Southwest 520 598 32,000  Level FlightAware Transoceanic
Tue 12:22:00 AM 45.9420 158.1978 232° Southwest 520 598 32,000  Level FlightAware Transoceanic
Tue 12:23:00 AM 45.8593 158.0458 232° Southwest 520 598 32,000  Level FlightAware Transoceanic
Tue 12:24:00 AM 45.7766 157.8943 232° Southwest 520 598 32,000  Level FlightAware Transoceanic
Tue 12:25:00 AM 45.6936 157.7433 232° Southwest 520 598 32,000  Level FlightAware Transoceanic
Tue 12:26:00 AM 45.6103 157.5927 232° Southwest 520 598 32,000  Level FlightAware Transoceanic
Tue 12:27:00 AM 45.5269 157.4426 232° Southwest 520 598 32,000  Level FlightAware Transoceanic
Tue 12:28:00 AM 45.4434 157.2929 231° Southwest 520 598 32,000  Level FlightAware Transoceanic
Tue 12:29:00 AM 45.3596 157.1437 231° Southwest 520 598 32,000  Level FlightAware Transoceanic
Tue 12:30:00 AM 45.2756 156.9949 231° Southwest 520 598 32,000  Level FlightAware Transoceanic
Tue 12:31:00 AM 45.1914 156.8465 231° Southwest 520 598 32,000  Level FlightAware Transoceanic
Tue 12:32:00 AM 45.1070 156.6986 231° Southwest 520 598 32,000  Level FlightAware Transoceanic
Tue 12:33:00 AM 45.0225 156.5511 231° Southwest 520 598 32,000  Level FlightAware Transoceanic
Tue 12:34:00 AM 44.9377 156.4041 231° Southwest 520 598 32,000  Level FlightAware Transoceanic
Tue 12:35:00 AM 44.8528 156.2575 231° Southwest 520 598 32,000  Level FlightAware Transoceanic
Tue 12:36:00 AM 44.7677 156.1113 231° Southwest 520 598 32,000  Level FlightAware Transoceanic
Tue 12:37:00 AM 44.6824 155.9655 230° Southwest 520 598 32,000  Level FlightAware Transoceanic
Tue 12:38:00 AM 44.5969 155.8202 230° Southwest 520 598 32,000  Level FlightAware Transoceanic
Tue 12:39:00 AM 44.5112 155.6753 230° Southwest 520 598 32,000  Level FlightAware Transoceanic
Tue 12:40:00 AM 44.4253 155.5309 230° Southwest 520 598 32,000  Level FlightAware Transoceanic
Tue 12:41:00 AM 44.3393 155.3868 230° Southwest 520 598 32,000  Level FlightAware Transoceanic
Tue 12:42:00 AM 44.2531 155.2432 230° Southwest 520 598 32,000 52 Level FlightAware Transoceanic
Tue 12:43:00 AM 44.1746 155.0981 233° Southwest  Level FlightAware Approximate
Tue 12:44:00 AM 44.0960 154.9533 233° Southwest  Level FlightAware Approximate
Tue 12:45:00 AM 44.0920 154.9645 229° Southwest  Level FlightAware Approximate
Tue 12:46:00 AM 44.0060 154.8283 229° Southwest  Level FlightAware Approximate
Tue 12:47:00 AM 43.9199 154.6925 229° Southwest  Level FlightAware Approximate
Tue 12:48:00 AM 43.8336 154.5571 229° Southwest  Level FlightAware Approximate
Tue 12:49:00 AM 43.7472 154.4221 228° Southwest  Level FlightAware Approximate
Tue 12:50:00 AM 43.6606 154.2875 228° Southwest  Level FlightAware Approximate
Tue 12:51:00 AM 43.5738 154.1532 228° Southwest  Level FlightAware Approximate
Tue 12:52:00 AM 43.4869 154.0194 228° Southwest  Level FlightAware Approximate
Tue 12:53:00 AM 43.3998 153.8859 228° Southwest  Level FlightAware Approximate
Tue 12:54:00 AM 43.3126 153.7528 228° Southwest  Level FlightAware Approximate
Tue 12:55:00 AM 43.2252 153.6201 228° Southwest  Level FlightAware Approximate
Tue 12:56:00 AM 43.1377 153.4878 228° Southwest  Level FlightAware Approximate
Tue 12:57:00 AM 43.0500 153.3559 228° Southwest  Level FlightAware Approximate
Tue 12:58:00 AM 42.9621 153.2243 228° Southwest  Level FlightAware Approximate
Tue 12:59:00 AM 42.8741 153.0931 228° Southwest  Level FlightAware Approximate
Tue 01:00:00 AM 42.7860 152.9623 227° Southwest  Level FlightAware Approximate
Tue 01:01:00 AM 42.6977 152.8319 227° Southwest  Level FlightAware Approximate
Tue 01:02:00 AM 42.6093 152.7018 227° Southwest  Level FlightAware Approximate
Tue 01:03:00 AM 42.5207 152.5721 227° Southwest  Level FlightAware Approximate
Tue 01:04:00 AM 42.4320 152.4428 227° Southwest  Level FlightAware Approximate
Tue 01:05:00 AM 42.3431 152.3138 227° Southwest  Level FlightAware Approximate
Tue 01:06:00 AM 42.2541 152.1852 227° Southwest  Level FlightAware Approximate
Tue 01:07:00 AM 42.1649 152.0569 227° Southwest  Level FlightAware Approximate
Tue 01:08:00 AM 42.0756 151.9291 227° Southwest  Level FlightAware Approximate
Tue 01:09:00 AM 41.9862 151.8015 227° Southwest  Level FlightAware Approximate
Tue 01:10:00 AM 41.8966 151.6744 227° Southwest  Level FlightAware Approximate
Tue 01:11:00 AM 41.8069 151.5476 227° Southwest  Level FlightAware Approximate
Tue 01:12:00 AM 41.7170 151.4211 226° Southwest  Level FlightAware Approximate
Tue 01:13:00 AM 41.6270 151.2950 226° Southwest  Level FlightAware Approximate
Tue 01:14:00 AM 41.5369 151.1693 226° Southwest  Level FlightAware Approximate
Tue 01:15:00 AM 41.4466 151.0439 226° Southwest  Level FlightAware Approximate
Tue 01:16:00 AM 41.3562 150.9188 226° Southwest  Level FlightAware Approximate
Tue 01:17:00 AM 41.2657 150.7941 226° Southwest  Level FlightAware Approximate
Tue 01:18:00 AM 41.1750 150.6698 226° Southwest  Level FlightAware Approximate
Tue 01:19:00 AM 41.0842 150.5458 226° Southwest  Level FlightAware Approximate
Tue 01:20:00 AM 40.9932 150.4221 226° Southwest  Level FlightAware Approximate
Tue 01:21:00 AM 40.9021 150.2988 226° Southwest  Level FlightAware Approximate
Tue 01:22:00 AM 40.8109 150.1758 226° Southwest  Level FlightAware Approximate
Tue 01:23:00 AM 40.7196 150.0531 226° Southwest  Level FlightAware Approximate
Tue 01:24:00 AM 40.6281 149.9308 225° Southwest  Level FlightAware Approximate
Tue 01:25:00 AM 40.5365 149.8088 225° Southwest  Level FlightAware Approximate
Tue 01:26:00 AM 40.4448 149.6872 225° Southwest  Level FlightAware Approximate
Tue 01:27:00 AM 40.3530 149.5658 225° Southwest  Level FlightAware Approximate
Tue 01:28:00 AM 40.2611 149.4447 225° Southwest  Level FlightAware Approximate
Tue 01:29:00 AM 40.1690 149.3240 225° Southwest  Level FlightAware Approximate
Tue 01:30:00 AM 40.0769 149.2036 225° Southwest  Level FlightAware Approximate
Tue 01:31:00 AM 39.9846 149.0835 225° Southwest  Level FlightAware Approximate
Tue 01:32:00 AM 39.8922 148.9637 225° Southwest  Level FlightAware Approximate
Tue 01:33:00 AM 39.7996 148.8443 225° Southwest  Level FlightAware Approximate
Tue 01:34:00 AM 39.7070 148.7252 225° Southwest  Level FlightAware Approximate
Tue 01:35:00 AM 39.6142 148.6064 225° Southwest  Level FlightAware Approximate
Tue 01:36:00 AM 39.5213 148.4879 225° Southwest  Level FlightAware Approximate
Tue 01:37:00 AM 39.4283 148.3697 224° Southwest  Level FlightAware Approximate
Tue 01:38:00 AM 39.3352 148.2519 224° Southwest  Level FlightAware Approximate
Tue 01:39:00 AM 39.2419 148.1343 224° Southwest  Level FlightAware Approximate
Tue 01:40:00 AM 39.1485 148.0171 224° Southwest  Level FlightAware Approximate
Tue 01:41:00 AM 39.0550 147.9002 224° Southwest  Level FlightAware Approximate
Tue 01:42:00 AM 38.9614 147.7836 224° Southwest  Level FlightAware Approximate
Tue 01:43:00 AM 38.8677 147.6673 224° Southwest  Level FlightAware Approximate
Tue 01:44:00 AM 38.7739 147.5513 224° Southwest  Level FlightAware Approximate
Tue 01:45:00 AM 38.6799 147.4356 224° Southwest  Level FlightAware Approximate
Tue 01:46:00 AM 38.5858 147.3202 224° Southwest  Level FlightAware Approximate
Tue 01:47:00 AM 38.4917 147.2051 224° Southwest  Level FlightAware Approximate
Tue 01:48:00 AM 38.3974 147.0904 224° Southwest  Level FlightAware Approximate
Tue 01:49:00 AM 38.3030 146.9759 224° Southwest  Level FlightAware Approximate
Tue 01:50:00 AM 38.2085 146.8617 224° Southwest  Level FlightAware Approximate
Tue 01:51:00 AM 38.1138 146.7478 223° Southwest  Level FlightAware Approximate
Tue 01:52:00 AM 38.0191 146.6342 223° Southwest  Level FlightAware Approximate
Tue 01:53:00 AM 37.9243 146.5209 223° Southwest  Level FlightAware Approximate
Tue 01:54:00 AM 37.8293 146.4079 223° Southwest  Level FlightAware Approximate
Tue 01:55:00 AM 37.7343 146.2952 223° Southwest  Level FlightAware Approximate
Tue 01:56:00 AM 37.6391 146.1828 223° Southwest  Level FlightAware Approximate
Tue 01:57:00 AM 37.5438 146.0706 223° Southwest  Level FlightAware Approximate
Tue 01:58:00 AM 37.4484 145.9588 223° Southwest  Level FlightAware Approximate
Tue 01:59:00 AM 37.3530 145.8472 223° Southwest  Level FlightAware Approximate
Tue 02:00:00 AM 37.2574 145.7359 223° Southwest  Level FlightAware Approximate
Tue 02:01:00 AM 37.1796 145.6134 263° West  Level FlightAware Approximate
Tue 02:02:00 AM 37.1627 145.4512 263° West  Level FlightAware Approximate
Tue 02:03:00 AM 37.1457 145.2892 263° West  Level FlightAware Approximate
Tue 02:04:00 AM 37.1284 145.1272 262° West  Level FlightAware Approximate
Tue 02:05:00 AM 37.1110 144.9653 262° West  Level FlightAware Approximate
Tue 02:06:00 AM 37.0932 144.8035 262° West  Level FlightAware Approximate
Tue 02:07:00 AM 37.0753 144.6417 262° West  Level FlightAware Approximate
Tue 02:08:00 AM 37.0572 144.4800 262° West  Level FlightAware Approximate
Tue 02:09:00 AM 37.0388 144.3184 262° West  Level FlightAware Approximate
Tue 02:10:00 AM 37.0202 144.1569 262° West  Level FlightAware Approximate
Tue 02:11:00 AM 37.0014 143.9955 262° West  Level FlightAware Approximate
Tue 02:12:00 AM 36.9143 143.8773 225° Southwest  Level FlightAware Approximate
Tue 02:13:00 AM 36.8216 143.7630 225° Southwest  Level FlightAware Approximate
Tue 02:14:00 AM 36.7287 143.6490 225° Southwest  Level FlightAware Approximate
Tue 02:15:00 AM 36.6357 143.5352 224° Southwest  Level FlightAware Approximate
Tue 02:16:00 AM 36.5426 143.4216 224° Southwest  Level FlightAware Approximate
Tue 02:17:00 AM 36.4494 143.3084 224° Southwest  Level FlightAware Approximate
Tue 02:18:00 AM 36.3561 143.1954 224° Southwest  Level FlightAware Approximate
Tue 02:19:00 AM 36.2627 143.0827 224° Southwest  Level FlightAware Approximate
Tue 02:20:00 AM 36.1692 142.9703 224° Southwest  Level FlightAware Approximate
Tue 02:21:00 AM 36.0756 142.8582 224° Southwest  Level FlightAware Approximate
Tue 02:22:00 AM 35.9819 142.7463 224° Southwest  Level FlightAware Approximate
Tue 02:23:00 AM 35.8880 142.6346 224° Southwest  Level FlightAware Approximate
Tue 02:24:00 AM 35.7994 142.5179 236° Southwest  Level FlightAware Approximate
Tue 02:25:00 AM 35.7272 142.3842 236° Southwest  Level FlightAware Approximate
Tue 02:26:00 AM 35.6549 142.2507 236° Southwest  Level FlightAware Approximate
Tue 02:27:00 AM 35.5825 142.1175 236° Southwest  Level FlightAware Approximate
Tue 02:28:00 AM 35.5099 141.9846 236° Southwest  Level FlightAware Approximate
Tue 02:29:00 AM 35.4372 141.8518 236° Southwest  Level FlightAware Approximate
Tue 02:30:00 AM 35.3643 141.7194 236° Southwest  Level FlightAware Approximate
Tue 02:31:00 AM 35.2913 141.5871 236° Southwest  Level FlightAware Approximate
Tue 02:32:00 AM 35.2182 141.4551 236° Southwest  Level FlightAware Approximate
Tue 02:33:00 AM 35.1449 141.3233 236° Southwest  Level FlightAware Approximate
Tue 02:34:00 AM 35.0714 141.1918 236° Southwest  Level FlightAware Approximate
Tue 02:35:00 AM 34.9990 141.0595 236° Southwest  Level FlightAware Approximate
Tue 02:35:57 AM 36.0520 142.8250 236° Southwest 378 435 38,000  Level FlightAware ADS-B
Tue 02:36:00 AM 34.9266 140.9274 236° Southwest  Level FlightAware Approximate
Tue 02:36:37 AM 36.0120 142.7520 236° Southwest 379 436 38,000  Level FlightAware ADS-B
Tue 02:37:17 AM 35.9700 142.6760 236° Southwest 375 432 38,000  Level FlightAware ADS-B
Tue 02:38:32 AM 35.8990 142.5500 235° Southwest 381 438 38,000  Level FlightAware ADS-B
Tue 02:39:07 AM 35.8670 142.4920 236° Southwest 383 441 38,000  Level FlightAware ADS-B
Tue 02:39:57 AM 35.8120 142.3940 235° Southwest 378 435 38,000  Level FlightAware ADS-B
Tue 02:40:32 AM 35.7780 142.3330 236° Southwest 379 436 38,000  Level FlightAware ADS-B
Tue 02:41:12 AM 35.7370 142.2600 235° Southwest 379 436 38,000  Level FlightAware ADS-B
Tue 02:41:52 AM 35.6930 142.1820 235° Southwest 381 438 38,000  Level FlightAware ADS-B
Tue 02:42:47 AM 35.6400 142.0870 236° Southwest 381 438 38,000  Level FlightAware ADS-B
Tue 02:43:27 AM 35.5990 142.0150 235° Southwest 381 438 38,000  Level FlightAware ADS-B
Tue 02:45:32 AM 35.4720 141.7920 235° Southwest 381 438 38,000  Level FlightAware ADS-B
Tue 02:46:07 AM 35.4400 141.7360 235° Southwest 381 438 38,000  Level FlightAware ADS-B
Tue 02:46:57 AM 35.3860 141.6420 235° Southwest 381 438 38,000  Level FlightAware ADS-B
Tue 02:47:37 AM 35.3430 141.5670 235° Southwest 381 438 38,000  Level FlightAware ADS-B
Tue 02:48:22 AM 35.2970 141.4870 235° Southwest 380 437 38,000  Level FlightAware ADS-B
Tue 02:49:02 AM 35.2560 141.4160 235° Southwest 381 438 38,000  Level FlightAware ADS-B
Tue 02:49:47 AM 35.2090 141.3350 235° Southwest 380 437 38,000  Level FlightAware ADS-B
Tue 02:50:27 AM 35.1690 141.2650 235° Southwest 386 444 38,000  Level FlightAware ADS-B
Tue 02:51:07 AM 35.1270 141.1940 234° Southwest 386 444 38,000  Level FlightAware ADS-B
Tue 02:51:52 AM 35.0800 141.1120 235° Southwest 387 445 38,000  Level FlightAware ADS-B
Tue 02:52:32 AM 35.0390 141.0420 234° Southwest 386 444 38,000  Level FlightAware ADS-B
Tue 02:53:17 AM 34.9930 140.9630 235° Southwest 387 445 38,000  Level FlightAware ADS-B
Tue 02:53:57 AM 34.9520 140.8930 234° Southwest 388 447 38,000  Level FlightAware ADS-B
Tue 02:54:37 AM 34.9100 140.8200 235° Southwest 388 447 38,000  Level FlightAware ADS-B
Tue 02:55:22 AM 34.8640 140.7420 234° Southwest 388 447 38,000  Level FlightAware ADS-B
Tue 02:56:02 AM 34.8210 140.6710 234° Southwest 388 447 38,000  Level FlightAware ADS-B
Tue 02:56:42 AM 34.7810 140.6030 234° Southwest 390 449 38,000  Level FlightAware ADS-B
Tue 02:57:27 AM 34.7320 140.5190 235° Southwest 392 451 38,000  Level FlightAware ADS-B
Tue 02:58:07 AM 34.6870 140.4430 234° Southwest 391 450 38,000  Level FlightAware ADS-B
Tue 02:58:52 AM 34.6400 140.3640 234° Southwest 391 450 38,000  Level FlightAware ADS-B
Tue 02:59:32 AM 34.5980 140.2940 234° Southwest 393 452 38,000  Level FlightAware ADS-B
Tue 03:00:07 AM 34.5630 140.2340 235° Southwest 393 452 38,000  Level FlightAware ADS-B
Tue 03:00:52 AM 34.5150 140.1530 234° Southwest 391 450 38,000  Level FlightAware ADS-B
Tue 03:01:52 AM 34.4510 140.0470 234° Southwest 390 449 38,000  Level FlightAware ADS-B
Tue 03:02:37 AM 34.4020 139.9660 234° Southwest 390 449 38,000  Level FlightAware ADS-B
Tue 03:03:12 AM 34.3640 139.9030 234° Southwest 391 450 38,000  Level FlightAware ADS-B
Tue 03:03:57 AM 34.3160 139.8230 234° Southwest 391 450 38,000  Level FlightAware ADS-B
Tue 03:04:42 AM 34.2660 139.7410 234° Southwest 392 451 38,000  Level FlightAware ADS-B
Tue 03:05:22 AM 34.2230 139.6700 234° Southwest 393 452 38,000  Level FlightAware ADS-B
Tue 03:06:07 AM 34.1750 139.5900 234° Southwest 393 452 38,000  Level FlightAware ADS-B
Tue 03:06:47 AM 34.1320 139.5170 235° Southwest 389 448 38,000  Level FlightAware ADS-B
Tue 03:07:27 AM 34.1090 139.4370 251° West 380 437 38,000  Level FlightAware ADS-B
Tue 03:08:12 AM 34.0930 139.3420 259° West 379 436 38,000  Level FlightAware ADS-B
Tue 03:08:52 AM 34.0800 139.2600 259° West 379 436 38,000  Level FlightAware ADS-B
Tue 03:09:37 AM 34.0640 139.1670 258° West 380 437 38,000  Level FlightAware ADS-B
Tue 03:10:17 AM 34.0510 139.0870 259° West 379 436 38,000  Level FlightAware ADS-B
Tue 03:11:07 AM 34.0330 138.9820 258° West 377 434 38,000  Level FlightAware ADS-B
Tue 03:11:52 AM 34.0180 138.8970 258° West 377 434 38,000  Level FlightAware ADS-B
Tue 03:12:37 AM 34.0010 138.7950 259° West 376 433 38,000  Level FlightAware ADS-B
Tue 03:13:17 AM 33.9870 138.7110 259° West 376 433 38,000  Level FlightAware ADS-B
Tue 03:14:02 AM 33.9710 138.6190 258° West 377 434 38,000  Level FlightAware ADS-B
Tue 03:14:32 AM 33.9610 138.5610 258° West 377 434 38,000  Level FlightAware ADS-B
Tue 03:15:27 AM 33.9400 138.4390 258° West 379 436 38,000  Level FlightAware ADS-B
Tue 03:16:02 AM 33.9280 138.3710 258° West 379 436 38,000  Level FlightAware ADS-B
Tue 03:16:42 AM 33.9120 138.2830 258° West 378 435 38,000  Level FlightAware ADS-B
Tue 03:18:12 AM 33.8800 138.0990 258° West 379 436 38,000  Level FlightAware ADS-B
Tue 03:18:47 AM 33.8670 138.0250 258° West 379 436 38,000  Level FlightAware ADS-B
Tue 03:19:47 AM 33.8450 137.9020 258° West 378 435 38,000  Level FlightAware ADS-B
Tue 03:20:22 AM 33.8320 137.8320 257° West 378 435 38,000  Level FlightAware ADS-B
Tue 03:21:27 AM 33.8080 137.6980 258° West 377 434 38,000  Level FlightAware ADS-B
Tue 03:22:22 AM 33.7880 137.5860 258° West 377 434 38,000  Level FlightAware ADS-B
Tue 03:23:12 AM 33.7690 137.4840 257° West 377 434 38,000  Level FlightAware ADS-B
Tue 03:25:00 AM 33.6777 137.2243 247° West  Level Estimated
Tue 03:25:12 AM 33.7240 137.2380 247° West 377 434 38,000  Level FlightAware ADS-B
Tue 03:26:42 AM 33.6900 137.0550 257° West 375 432 38,000  Level FlightAware ADS-B
Tue 03:27:57 AM 33.6610 136.9030 257° West 373 429 38,000  Level FlightAware ADS-B
Tue 03:28:42 AM 33.6440 136.8120 257° West 372 428 38,000  Level FlightAware ADS-B
Tue 03:29:47 AM 33.6200 136.6810 258° West 371 427 38,000  Level FlightAware ADS-B
Tue 03:30:32 AM 33.6030 136.5950 257° West 370 426 38,000  Level FlightAware ADS-B
Tue 03:31:17 AM 33.5850 136.5010 257° West 371 427 38,000  Level FlightAware ADS-B
Tue 03:32:02 AM 33.5680 136.4120 257° West 372 428 38,000  Level FlightAware ADS-B
Tue 03:32:32 AM 33.5560 136.3510 257° West 372 428 38,000  Level FlightAware ADS-B
Tue 03:33:27 AM 33.5350 136.2400 257° West 375 432 38,000  Level FlightAware ADS-B
Tue 03:34:12 AM 33.5170 136.1500 257° West 375 432 38,000  Level FlightAware ADS-B
Tue 03:35:32 AM 33.4870 135.9920 257° West 375 432 38,000  Level FlightAware ADS-B
Tue 03:36:22 AM 33.4660 135.8880 256° West 374 430 38,000  Level FlightAware ADS-B
Tue 03:37:37 AM 33.4360 135.7400 256° West 374 430 38,000  Level FlightAware ADS-B
Tue 03:38:17 AM 33.4170 135.6630 254° West 374 430 38,000  Level FlightAware ADS-B
Tue 03:39:02 AM 33.3950 135.5710 254° West 374 430 38,000  Level FlightAware ADS-B
Tue 03:39:42 AM 33.3760 135.4910 254° West 376 433 38,000  Level FlightAware ADS-B
Tue 03:40:22 AM 33.3570 135.4110 254° West 378 435 38,000  Level FlightAware ADS-B
Tue 03:41:07 AM 33.3340 135.3210 253° West 379 436 38,000  Level FlightAware ADS-B
Tue 03:41:47 AM 33.3130 135.2450 252° West 379 436 38,000  Level FlightAware ADS-B
Tue 03:42:27 AM 33.2920 135.1630 253° West 380 437 38,000  Level FlightAware ADS-B
Tue 03:43:12 AM 33.2680 135.0710 253° West 381 438 38,000  Level FlightAware ADS-B
Tue 03:43:52 AM 33.2470 134.9920 252° West 382 440 38,000  Level FlightAware ADS-B
Tue 03:44:37 AM 33.2250 134.9010 254° West 382 440 38,000  Level FlightAware ADS-B
Tue 03:45:17 AM 33.2060 134.8190 255° West 383 441 38,000  Level FlightAware ADS-B
Tue 03:45:57 AM 33.1860 134.7390 253° West 382 440 38,000  Level FlightAware ADS-B
Tue 03:46:42 AM 33.1640 134.6470 254° West 382 440 38,000  Level FlightAware ADS-B
Tue 03:47:22 AM 33.1440 134.5670 253° West 382 440 38,000  Level FlightAware ADS-B
Tue 03:48:07 AM 33.1220 134.4760 254° West 383 441 38,000  Level FlightAware ADS-B
Tue 03:48:47 AM 33.1020 134.3970 253° West 382 440 38,000  Level FlightAware ADS-B
Tue 03:49:27 AM 33.0820 134.3140 254° West 382 440 38,000  Level FlightAware ADS-B
Tue 03:50:12 AM 33.0590 134.2220 253° West 383 441 38,000  Level FlightAware ADS-B
Tue 03:50:52 AM 33.0400 134.1420 254° West 383 441 38,000  Level FlightAware ADS-B
Tue 03:51:32 AM 33.0210 134.0630 254° West 384 442 38,000  Level FlightAware ADS-B
Tue 03:52:17 AM 32.9980 133.9690 254° West 384 442 38,000  Level FlightAware ADS-B
Tue 03:52:57 AM 32.9780 133.8900 253° West 383 441 38,000  Level FlightAware ADS-B
Tue 03:53:42 AM 32.9560 133.7990 254° West 383 441 38,000  Level FlightAware ADS-B
Tue 03:54:22 AM 32.9360 133.7190 253° West 383 441 38,000  Level FlightAware ADS-B
Tue 03:56:00 AM 32.8416 133.4919 244° Southwest  Level Estimated
Tue 03:57:00 AM 32.7837 133.3531 244° Southwest  Level Estimated
Tue 03:58:00 AM 32.7255 133.2144 244° Southwest  Level Estimated
Tue 03:59:00 AM 32.6673 133.0760 243° Southwest  Level Estimated
Tue 03:59:57 AM 32.7670 133.0390 243° Southwest 391 450 38,000  Level FlightAware ADS-B
Tue 04:00:00 AM 32.6088 132.9377 243° Southwest  Level Estimated
Tue 04:00:32 AM 32.7460 132.9730 249° West 392 451 38,000  Level FlightAware ADS-B
Tue 04:01:22 AM 32.7030 132.8730 243° Southwest 395 455 38,000  Level FlightAware ADS-B
Tue 04:02:02 AM 32.6710 132.7980 243° Southwest 396 456 38,000  Level FlightAware ADS-B
Tue 04:02:42 AM 32.6370 132.7190 243° Southwest 395 455 38,000  Level FlightAware ADS-B
Tue 04:03:22 AM 32.6060 132.6470 243° Southwest 395 455 38,000  Level FlightAware ADS-B
Tue 04:04:07 AM 32.5640 132.5510 243° Southwest 396 456 38,000  Level FlightAware ADS-B
Tue 04:04:47 AM 32.5320 132.4760 243° Southwest 398 458 38,000  Level FlightAware ADS-B
Tue 04:05:32 AM 32.4930 132.3890 242° Southwest 398 458 38,000  Level FlightAware ADS-B
Tue 04:06:07 AM 32.4650 132.3220 244° Southwest 398 458 38,000  Level FlightAware ADS-B
Tue 04:06:57 AM 32.4210 132.2240 242° Southwest 399 459 38,000  Level FlightAware ADS-B
Tue 04:07:37 AM 32.3910 132.1550 243° Southwest 399 459 38,000  Level FlightAware ADS-B
Tue 04:08:17 AM 32.3550 132.0730 243° Southwest 399 459 38,000  Level FlightAware ADS-B
Tue 04:09:02 AM 32.3150 131.9830 242° Southwest 399 459 38,000  Level FlightAware ADS-B
Tue 04:09:47 AM 32.2770 131.8970 242° Southwest 400 460 38,000  Level FlightAware ADS-B
Tue 04:10:27 AM 32.2430 131.8200 242° Southwest 400 460 38,000  Level FlightAware ADS-B
Tue 04:11:12 AM 32.2060 131.7350 243° Southwest 401 461 38,000  Level FlightAware ADS-B
Tue 04:11:52 AM 32.1710 131.6560 242° Southwest 402 463 38,000  Level FlightAware ADS-B
Tue 04:12:37 AM 32.1340 131.5740 242° Southwest 403 464 38,000  Level FlightAware ADS-B
Tue 04:13:17 AM 32.0970 131.4890 243° Southwest 404 465 38,000  Level FlightAware ADS-B
Tue 04:13:57 AM 32.0630 131.4120 242° Southwest 404 465 38,000  Level FlightAware ADS-B
Tue 04:14:32 AM 32.0340 131.3450 243° Southwest 405 466 38,000  Level FlightAware ADS-B
Tue 04:15:22 AM 31.9890 131.2440 242° Southwest 402 463 38,000  Level FlightAware ADS-B
Tue 04:16:02 AM 31.9580 131.1720 243° Southwest 407 468 38,000  Level FlightAware ADS-B
Tue 04:16:47 AM 31.9160 131.0780 242° Southwest 408 470 38,000  Level FlightAware ADS-B
Tue 04:17:27 AM 31.8810 130.9990 242° Southwest 408 470 38,000  Level FlightAware ADS-B
Tue 04:18:12 AM 31.8450 130.9160 243° Southwest 408 470 38,000  Level FlightAware ADS-B
Tue 04:18:52 AM 31.8090 130.8360 242° Southwest 407 468 38,000  Level FlightAware ADS-B
Tue 04:19:37 AM 31.7700 130.7460 243° Southwest 407 468 38,000  Level FlightAware ADS-B
Tue 04:20:17 AM 31.7340 130.6650 242° Southwest 407 468 38,000  Level FlightAware ADS-B
Tue 04:20:57 AM 31.6980 130.5880 241° Southwest 407 468 38,000  Level FlightAware ADS-B
Tue 04:21:42 AM 31.6520 130.5140 234° Southwest 411 473 38,000  Level FlightAware ADS-B
Tue 04:22:22 AM 31.6010 130.4370 232° Southwest 410 472 38,000  Level FlightAware ADS-B
Tue 04:23:17 AM 31.5380 130.3420 232° Southwest 411 473 38,000  Level FlightAware ADS-B
Tue 04:24:02 AM 31.4850 130.2610 233° Southwest 410 472 38,000  Level FlightAware ADS-B
Tue 04:24:42 AM 31.4380 130.1910 232° Southwest 412 474 38,000  Level FlightAware ADS-B
Tue 04:25:17 AM 31.3970 130.1290 232° Southwest 412 474 38,000  Level FlightAware ADS-B
Tue 04:26:07 AM 31.3400 130.0440 232° Southwest 413 475 38,000  Level FlightAware ADS-B
Tue 04:27:02 AM 31.2790 129.9500 233° Southwest 414 476 38,000  Level FlightAware ADS-B
Tue 04:27:37 AM 31.2370 129.8870 232° Southwest 412 474 38,000  Level FlightAware ADS-B
Tue 04:28:22 AM 31.1880 129.8140 232° Southwest 412 474 38,000  Level FlightAware ADS-B
Tue 04:29:02 AM 31.1480 129.7540 232° Southwest 412 474 38,000  Level FlightAware ADS-B
Tue 04:29:52 AM 31.0980 129.6800 232° Southwest 412 474 38,000  Level FlightAware ADS-B
Tue 04:30:47 AM 31.0170 129.5600 232° Southwest 412 474 38,000  Level FlightAware ADS-B
Tue 04:31:27 AM 30.9780 129.5000 233° Southwest 412 474 38,000  Level FlightAware ADS-B
Tue 04:32:07 AM 30.9380 129.4410 232° Southwest 412 474 38,000  Level FlightAware ADS-B
Tue 04:32:47 AM 30.8980 129.3810 232° Southwest 412 474 38,000  Level FlightAware ADS-B
Tue 04:33:37 AM 30.8480 129.3070 232° Southwest 412 474 38,000  Level FlightAware ADS-B
Tue 04:34:17 AM 30.8080 129.2470 232° Southwest 412 474 38,000  Level FlightAware ADS-B
Tue 04:34:57 AM 30.7680 129.1880 232° Southwest 412 474 38,000  Level FlightAware ADS-B
Tue 04:35:37 AM 30.7280 129.1280 232° Southwest 412 474 38,000  Level FlightAware ADS-B
Tue 04:36:17 AM 30.6880 129.0690 232° Southwest 412 474 38,000  Level FlightAware ADS-B
Tue 04:37:07 AM 30.6380 128.9950 232° Southwest 412 474 38,000  Level FlightAware ADS-B
Tue 04:37:47 AM 30.5990 128.9350 233° Southwest 412 474 38,000  Level FlightAware ADS-B
Tue 04:38:27 AM 30.5590 128.8760 232° Southwest 412 474 38,000  Level FlightAware ADS-B
Tue 04:39:07 AM 30.5190 128.8170 232° Southwest 412 474 38,000  Level FlightAware ADS-B
Tue 04:39:47 AM 30.4790 128.7570 232° Southwest 412 474 38,000  Level FlightAware ADS-B
Tue 04:42:00 AM 30.3427 128.4618 242° Southwest  Level Estimated
Tue 04:43:00 AM 30.2810 128.3289 242° Southwest  Level Estimated
Tue 04:44:00 AM 30.2192 128.1961 242° Southwest  Level Estimated
Tue 04:45:00 AM 30.1572 128.0636 242° Southwest  Level Estimated
Tue 04:46:00 AM 30.0951 127.9311 242° Southwest  Level Estimated
Tue 04:47:00 AM 30.0329 127.7989 241° Southwest  Level Estimated
Tue 04:48:00 AM 29.9705 127.6668 241° Southwest  Level Estimated
Tue 04:49:00 AM 29.9081 127.5349 241° Southwest  Level Estimated
Tue 04:50:00 AM 29.8454 127.4032 241° Southwest  Level Estimated
Tue 04:51:00 AM 29.7827 127.2716 241° Southwest  Level Estimated
Tue 04:52:00 AM 29.7198 127.1402 241° Southwest  Level Estimated
Tue 04:53:00 AM 29.6568 127.0089 241° Southwest  Level Estimated
Tue 04:54:00 AM 29.5936 126.8778 241° Southwest  Level Estimated
Tue 04:55:00 AM 29.5303 126.7469 241° Southwest  Level Estimated
Tue 04:56:00 AM 29.4669 126.6161 241° Southwest  Level Estimated
Tue 04:57:00 AM 29.4034 126.4855 241° Southwest  Level Estimated
Tue 04:58:00 AM 29.3398 126.3551 241° Southwest  Level Estimated
Tue 04:59:00 AM 29.2760 126.2248 241° Southwest  Level Estimated
Tue 05:00:00 AM 29.2121 126.0947 241° Southwest  Level Estimated
Tue 05:01:00 AM 29.1480 125.9648 241° Southwest  Level Estimated
Tue 05:02:00 AM 29.0839 125.8350 241° Southwest  Level Estimated
Tue 05:03:00 AM 29.0196 125.7054 240° Southwest  Level Estimated
Tue 05:04:00 AM 28.9552 125.5759 240° Southwest  Level Estimated
Tue 05:05:00 AM 28.8907 125.4466 240° Southwest  Level Estimated
Tue 05:06:00 AM 28.8260 125.3175 240° Southwest  Level Estimated
Tue 05:07:00 AM 28.7612 125.1885 240° Southwest  Level Estimated
Tue 05:08:00 AM 28.6963 125.0597 240° Southwest  Level Estimated
Tue 05:09:00 AM 28.6313 124.9310 240° Southwest  Level Estimated
Tue 05:10:00 AM 28.5662 124.8025 240° Southwest  Level Estimated
Tue 05:11:00 AM 28.5009 124.6742 240° Southwest  Level Estimated
Tue 05:12:00 AM 28.4355 124.5460 240° Southwest  Level Estimated
Tue 05:13:00 AM 28.3700 124.4180 240° Southwest  Level Estimated
Tue 05:14:00 AM 28.3044 124.2901 240° Southwest  Level Estimated
Tue 05:15:00 AM 28.2386 124.1624 240° Southwest  Level Estimated
Tue 05:16:00 AM 28.1728 124.0349 240° Southwest  Level Estimated
Tue 05:17:00 AM 28.1068 123.9075 240° Southwest  Level Estimated
Tue 05:18:00 AM 28.0407 123.7803 240° Southwest  Level Estimated
Tue 05:19:00 AM 27.9745 123.6532 239° Southwest  Level Estimated
Tue 05:20:00 AM 27.9081 123.5263 239° Southwest  Level Estimated
Tue 05:21:00 AM 27.8417 123.3995 239° Southwest  Level Estimated
Tue 05:22:00 AM 27.7751 123.2729 239° Southwest  Level Estimated
Tue 05:23:00 AM 27.7085 123.1464 239° Southwest  Level Estimated
Tue 05:24:00 AM 27.6417 123.0201 239° Southwest  Level Estimated
Tue 05:25:00 AM 27.5748 122.8940 239° Southwest  Level Estimated
Tue 05:26:00 AM 27.5077 122.7680 239° Southwest  Level Estimated
Tue 05:27:00 AM 27.4406 122.6421 239° Southwest  Level Estimated
Tue 05:28:00 AM 27.3734 122.5164 239° Southwest  Level Estimated
Tue 05:28:27 AM 26.5790 123.3230 239° Southwest 449 517 38,000  Level FlightAware ADS-B
Tue 05:29:00 AM 27.3060 122.3909 239° Southwest  Level Estimated
Tue 05:29:07 AM 26.5250 123.2520 230° Southwest 451 519 38,000  Level FlightAware ADS-B
Tue 05:29:47 AM 26.4720 123.1820 230° Southwest 451 519 38,000  Level FlightAware ADS-B
Tue 05:30:32 AM 26.4110 123.1030 229° Southwest 447 514 38,000  Level FlightAware ADS-B
Tue 05:31:12 AM 26.3550 123.0300 229° Southwest 448 516 38,000  Level FlightAware ADS-B
Tue 05:31:57 AM 26.2970 122.9540 230° Southwest 447 514 38,000  Level FlightAware ADS-B
Tue 05:32:37 AM 26.2430 122.8830 230° Southwest 445 512 38,000  Level FlightAware ADS-B
Tue 05:33:17 AM 26.1900 122.8120 230° Southwest 444 511 38,000  Level FlightAware ADS-B
Tue 05:34:02 AM 26.1290 122.7310 230° Southwest 444 511 38,000  Level FlightAware ADS-B
Tue 05:34:42 AM 26.0760 122.6630 229° Southwest 446 513 38,000  Level FlightAware ADS-B
Tue 05:35:22 AM 26.0220 122.5910 230° Southwest 449 517 38,000  Level FlightAware ADS-B
Tue 05:36:07 AM 25.9630 122.5130 230° Southwest 453 521 38,000  Level FlightAware ADS-B
Tue 05:36:47 AM 25.9060 122.4400 229° Southwest 456 525 38,000  Level FlightAware ADS-B
Tue 05:37:22 AM 25.8570 122.3790 228° Southwest 458 527 38,000  Level FlightAware ADS-B
Tue 05:38:07 AM 25.7950 122.3030 228° Southwest 461 531 38,000  Level FlightAware ADS-B
Tue 05:38:47 AM 25.7380 122.2310 229° Southwest 464 534 38,000  Level FlightAware ADS-B
Tue 05:39:32 AM 25.6740 122.1500 229° Southwest 465 535 38,000  Level FlightAware ADS-B
Tue 05:40:12 AM 25.6160 122.0780 228° Southwest 466 536 38,000  Level FlightAware ADS-B
Tue 05:40:52 AM 25.5600 122.0070 229° Southwest 467 537 38,000  Level FlightAware ADS-B
Tue 05:41:37 AM 25.4960 121.9260 229° Southwest 465 535 38,000  Level FlightAware ADS-B
Tue 05:42:17 AM 25.4410 121.8550 229° Southwest 463 533 38,000  Level FlightAware ADS-B
Tue 05:43:02 AM 25.3760 121.7730 229° Southwest 460 529 38,000  Level FlightAware ADS-B
Tue 05:43:42 AM 25.3200 121.7030 228° Southwest 457 526 38,000  Level FlightAware ADS-B
Tue 05:44:22 AM 25.2650 121.6330 229° Southwest 455 524 38,000  Level FlightAware ADS-B
Tue 05:45:07 AM 25.2040 121.5560 229° Southwest 452 520 38,000  Level FlightAware ADS-B
Tue 05:45:47 AM 25.1460 121.4840 228° Southwest 453 521 38,000  Level FlightAware ADS-B
Tue 05:46:32 AM 25.0850 121.4100 228° Southwest 451 519 38,000  Level FlightAware ADS-B
Tue 05:47:12 AM 25.0270 121.3410 227° Southwest 452 520 38,000  Level FlightAware ADS-B
Tue 05:47:42 AM 24.9900 121.2950 228° Southwest 453 521 38,000  Level FlightAware ADS-B
Tue 05:48:27 AM 24.9300 121.2250 227° Southwest 453 521 38,000  Level FlightAware ADS-B
Tue 05:49:07 AM 24.8820 121.1670 228° Southwest 453 521 38,000  Level FlightAware ADS-B
Tue 05:49:47 AM 24.8240 121.0940 229° Southwest 38,000  Level FlightAware ADS-B
Tue 05:50:32 AM 24.7480 121.0030 227° Southwest 452 520 38,000  Level FlightAware ADS-B
Tue 05:51:17 AM 24.6930 120.9370 227° Southwest 452 520 38,000  Level FlightAware ADS-B
Tue 05:51:52 AM 24.6450 120.8790 228° Southwest 452 520 38,000  Level FlightAware ADS-B
Tue 05:52:42 AM 24.5750 120.7960 227° Southwest 454 522 38,000  Level FlightAware ADS-B
Tue 05:53:17 AM 24.5210 120.7310 228° Southwest 453 521 38,000  Level FlightAware ADS-B
Tue 05:54:07 AM 24.4510 120.6470 228° Southwest 453 521 38,000  Level FlightAware ADS-B
Tue 05:54:42 AM 24.3980 120.5840 227° Southwest 453 521 38,000  Level FlightAware ADS-B
Tue 05:55:27 AM 24.3400 120.5150 227° Southwest 452 520 38,000  Level FlightAware ADS-B
Tue 05:56:02 AM 24.2890 120.4540 227° Southwest 452 520 38,000  Level FlightAware ADS-B
Tue 05:56:52 AM 24.2160 120.3680 227° Southwest 451 519 38,000  Level FlightAware ADS-B
Tue 05:57:32 AM 24.1650 120.3080 227° Southwest 449 517 38,000  Level FlightAware ADS-B
Tue 05:58:17 AM 24.0980 120.2280 227° Southwest 445 512 38,000  Level FlightAware ADS-B
Tue 05:58:52 AM 24.0470 120.1680 227° Southwest 445 512 38,000  Level FlightAware ADS-B
Tue 05:59:52 AM 23.9630 120.0690 227° Southwest 451 519 38,000  Level FlightAware ADS-B
Tue 06:00:37 AM 23.9020 119.9970 227° Southwest 452 520 38,000  Level FlightAware ADS-B
Tue 06:01:17 AM 23.8460 119.9310 227° Southwest 455 524 38,000  Level FlightAware ADS-B
Tue 06:01:52 AM 23.7950 119.8710 227° Southwest 456 525 38,000  Level FlightAware ADS-B
Tue 06:02:42 AM 23.7230 119.7870 227° Southwest 456 525 38,000  Level FlightAware ADS-B
Tue 06:03:22 AM 23.6640 119.7170 227° Southwest 457 526 38,000  Level FlightAware ADS-B
Tue 06:04:22 AM 23.5830 119.6150 229° Southwest 455 524 38,000  Level FlightAware ADS-B
Tue 06:04:57 AM 23.5410 119.5430 238° Southwest 453 521 38,000  Level FlightAware ADS-B
Tue 06:05:42 AM 23.4910 119.4570 238° Southwest 454 522 38,000  Level FlightAware ADS-B
Tue 06:06:17 AM 23.4510 119.3880 238° Southwest 455 524 38,000  Level FlightAware ADS-B
Tue 06:07:12 AM 23.3920 119.2860 238° Southwest 456 525 38,000  Level FlightAware ADS-B
Tue 06:07:52 AM 23.3470 119.2100 237° Southwest 456 525 38,000  Level FlightAware ADS-B
Tue 06:08:32 AM 23.3010 119.1300 238° Southwest 457 526 38,000  Level FlightAware ADS-B
Tue 06:09:12 AM 23.2530 119.0490 237° Southwest 458 527 38,000  Level FlightAware ADS-B
Tue 06:09:57 AM 23.2040 118.9650 238° Southwest 458 527 38,000  Level FlightAware ADS-B
Tue 06:10:52 AM 23.1420 118.8590 238° Southwest 457 526 38,000  Level FlightAware ADS-B
Tue 06:11:37 AM 23.0880 118.7680 237° Southwest 456 525 38,000  Level FlightAware ADS-B
Tue 06:12:17 AM 23.0510 118.7040 238° Southwest 456 525 38,000  Level FlightAware ADS-B
Tue 06:13:02 AM 23.0040 118.6260 237° Southwest 456 525 38,000  Level FlightAware ADS-B
Tue 06:13:42 AM 22.9650 118.5610 237° Southwest 456 525 38,000  Level FlightAware ADS-B
Tue 06:14:17 AM 22.9070 118.4610 238° Southwest 454 522 38,000  Level FlightAware ADS-B
Tue 06:15:07 AM 22.8510 118.3670 237° Southwest 454 522 38,000  Level FlightAware ADS-B
Tue 06:15:37 AM 22.8190 118.3140 237° Southwest 454 522 38,000  Level FlightAware ADS-B
Tue 06:16:27 AM 22.7620 118.2180 237° Southwest 453 521 38,000  Level FlightAware ADS-B
Tue 06:17:12 AM 22.7100 118.1310 237° Southwest 453 521 38,000  Level FlightAware ADS-B
Tue 06:17:52 AM 22.6650 118.0550 237° Southwest 455 524 38,000  Level FlightAware ADS-B
Tue 06:18:37 AM 22.6120 117.9670 237° Southwest 457 526 38,000  Level FlightAware ADS-B
Tue 06:19:17 AM 22.5690 117.8950 237° Southwest 459 528 38,000  Level FlightAware ADS-B
Tue 06:19:57 AM 22.5230 117.8170 237° Southwest 462 532 38,000  Level FlightAware ADS-B
Tue 06:20:32 AM 22.4790 117.7440 237° Southwest 465 535 38,000  Level FlightAware ADS-B
Tue 06:21:37 AM 22.4010 117.6130 237° Southwest 465 535 38,000  Level FlightAware ADS-B
Tue 06:22:12 AM 22.3630 117.5480 238° Southwest 465 535 38,000  Level FlightAware ADS-B
Tue 06:22:57 AM 22.3170 117.4700 237° Southwest 465 535 38,000  Level FlightAware ADS-B
Tue 06:23:37 AM 22.2770 117.4040 237° Southwest 465 535 38,000  Level FlightAware ADS-B
Tue 06:24:27 AM 22.2270 117.3210 237° Southwest 465 535 38,000 -1,976 Level FlightAware ADS-B
Tue 06:25:02 AM 22.1990 117.2010 256° West 464 534 35,200 -2,100 Descending FlightAware ADS-B
Tue 06:25:47 AM 22.1580 117.1150 243° Southwest 464 534 35,200  Level FlightAware ADS-B
Tue 06:26:27 AM 22.1250 117.0450 243° Southwest 464 534 35,200  Level FlightAware ADS-B
Tue 06:27:07 AM 22.0920 116.9750 243° Southwest 464 534 35,200  Level FlightAware ADS-B
Tue 06:27:57 AM 22.0510 116.8870 243° Southwest 464 534 35,200  Level FlightAware ADS-B
Tue 06:28:37 AM 22.0170 116.8170 242° Southwest 464 534 35,200  Level FlightAware ADS-B
Tue 06:29:17 AM 21.9840 116.7470 243° Southwest 464 534 35,200  Level FlightAware ADS-B
Tue 06:29:57 AM 21.9510 116.6770 243° Southwest 464 534 35,200  Level FlightAware ADS-B
Tue 06:30:37 AM 21.9180 116.6070 243° Southwest 464 534 35,200  Level FlightAware ADS-B
Tue 06:31:17 AM 21.8850 116.5370 243° Southwest 464 534 35,200  Level FlightAware ADS-B
Tue 06:32:07 AM 21.8430 116.4490 243° Southwest 464 534 35,200  Level FlightAware ADS-B
Tue 06:32:47 AM 21.8100 116.3790 243° Southwest 464 534 35,200  Level FlightAware ADS-B
Tue 06:33:27 AM 21.7770 116.3090 243° Southwest 464 534 35,200  Level FlightAware ADS-B
Tue 06:34:07 AM 21.7440 116.2390 243° Southwest 464 534 35,200  Level FlightAware ADS-B
Tue 06:34:57 AM 21.7030 116.1510 243° Southwest 464 534 35,200 -657 Level FlightAware ADS-B
Tue 06:37:00 AM 21.7770 115.8847 287° West  Level Estimated
Tue 06:38:00 AM 21.8130 115.7547 287° West  Level Estimated
Tue 06:39:00 AM 21.8488 115.6246 287° West  Level Estimated
Tue 06:40:00 AM 21.8846 115.4945 287° West  Level Estimated
Tue 06:41:00 AM 21.9202 115.3643 286° West  Level Estimated
Tue 06:42:00 AM 21.9557 115.2340 286° West  Level Estimated
Tue 06:43:00 AM 21.9912 115.1037 286° West  Level Estimated
Tue 06:44:00 AM 22.0265 114.9733 286° West  Level Estimated
Tue 06:45:00 AM 22.0618 114.8428 286° West  Level Estimated
Tue 06:46:00 AM 22.0965 114.7139 286° West  Level Estimated
Tue 06:47:00 AM 22.1311 114.5848 286° West  Level Estimated
Tue 06:48:00 AM 22.1656 114.4558 286° West  Level Estimated
Tue 06:49:00 AM 22.1999 114.3266 286° West  Level Estimated
Tue 06:50:00 AM 22.2342 114.1974 286° West  Level Estimated
Tue 06:51:00 AM 22.2684 114.0682 286° West  Level Estimated
Tue 06:52:00 AM 22.3025 113.9388 286° West  Level Estimated
Tue 06:53:00 AM 22.3089 113.9146 286° West  Level Estimated
Tue 06:54:00 AM 22.3089 113.9146 110° East  Level Estimated
Tue 06:55:00 AM 22.3089 113.9146 110° East  Level Estimated
Tue 06:56:00 AM 22.3089 113.9146 110° East  Level Estimated
Tue 06:57:00 AM 22.3089 113.9146 110° East  Level Estimated
Tue 06:58:00 AM 22.3089 113.9146 110° East  Level Estimated
Tue 06:59:00 AM 22.3089 113.9146 110° East  Level Estimated
Tue 07:00:00 AM 22.3089 113.9146 110° East  Level Estimated
Tue 07:01:00 AM 22.3089 113.9146 110° East  Level Estimated
Tue 07:02:00 AM 22.3089 113.9146 110° East  Level Estimated
Tue 07:03:00 AM 22.3089 113.9146 110° East  Level Estimated
Tue 07:04:00 AM 22.3089 113.9146 110° East  Level Estimated
Tue 07:05:00 AM 22.3089 113.9146 110° East  Level Estimated
Tue 07:06:00 AM 22.3089 113.9146 110° East  Level Estimated
Tue 07:07:00 AM 22.3089 113.9146 110° East  Level Estimated
Tue 07:08:00 AM 22.3089 113.9146 110° East  Level Estimated
Tue 07:09:00 AM 22.3089 113.9146 110° East  Level Estimated
Tue 07:10:00 AM 22.3089 113.9146 110° East  Level Estimated
Tue 07:11:00 AM 22.3089 113.9146 110° East  Level Estimated
Tue 07:12:00 AM 22.3089 113.9146 110° East  Level Estimated
Tue 07:13:00 AM 22.3089 113.9146 110° East  Level Estimated
Tue 07:14:00 AM 22.3089 113.9146 110° East  Level Estimated
Tue 07:15:00 AM 22.3089 113.9146 110° East  Level Estimated
Tue 07:16:00 AM 22.3089 113.9146 110° East  Level Estimated
Tue 07:17:00 AM 22.3089 113.9146 110° East  Level Estimated
Tue 07:18:00 AM 22.3089 113.9146 110° East  Level Estimated
Tue 07:19:00 AM 22.3089 113.9146 110° East  Level Estimated
Tue 07:20:00 AM 22.3089 113.9146 110° East  Level Estimated
Tue 07:20:07 AM 22.3960 114.2090 110° East 190 219 5,000  Level FlightAware ADS-B
Tue 07:20:37 AM 22.4010 114.1830 282° West 192 221 4,800 -600 Descending FlightAware ADS-B
Tue 07:21:07 AM 22.3930 114.1530 254° West 195 224 4,400 -900 Descending FlightAware ADS-B
Tue 07:21:37 AM 22.3840 114.1250 251° West 189 217 3,900 -982 Descending FlightAware ADS-B
Tue 07:22:02 AM 22.3780 114.1050 252° West 176 203 3,500 -982 Descending FlightAware ADS-B
Tue 07:22:32 AM 22.3690 114.0790 249° West 176 203 3,000 -900 Descending FlightAware ADS-B
Tue 07:23:02 AM 22.3620 114.0550 252° West 179 206 2,600 -873 Descending FlightAware ADS-B
Tue 07:23:27 AM 22.3540 114.0330 249° West 169 194 2,200 -873 Descending FlightAware ADS-B
Tue 07:23:57 AM 22.3470 114.0110 251° West 151 174 1,800 -764 Descending FlightAware ADS-B
Tue 07:24:22 AM 22.3420 113.9950 251° West 142 163 1,500 -720 Descending FlightAware ADS-B
Tue 07:24:47 AM 22.3370 113.9790 251° West 140 161 1,200 -800 Descending FlightAware ADS-B
Tue 07:25:22 AM 22.3290 113.9550 250° West 136 157 700 -800 Descending FlightAware ADS-B
Tue 07:25:32 AM 22.3270 113.9490 250° West 137 158 600 -750 Descending FlightAware ADS-B
Tue 07:26:02 AM 22.3210 113.9290 252° West 140 161 200 -800 Descending FlightAware ADS-B

Login

Don't have an account? Register now (free) for customized features, flight alerts, and more!